<?xml version="1.0" encoding="UTF-8" standalone="no" ?>
<gpx xmlns="http://www.topografix.com/GPX/1/1" xmlns:xsi="http://www.w3.org/2001/XMLSchema-instance" xsi:schemaLocation="http://www.topografix.com/GPX/1/1 http://www.topografix.com/GPX/1/1/gpx.xsd" version="1.1" creator="VisuGPX - https://www.visugpx.com">
  <metadata>
    <name>Chemin Faisant en reconnaissance à Croignon 2016</name>
    <desc><![CDATA[Beaucoup de sentiers dans les bois]]></desc>
  </metadata>
  <trk>
    <name><![CDATA[2016-05-25 16:51:06]]></name>
    <trkseg>
      <trkpt lat="44.81963" lon="-0.34576">
        <ele>37.15</ele>
        <time>2016-05-25T11:41:03Z</time>
      </trkpt>
      <trkpt lat="44.81964" lon="-0.34576">
        <ele>36.67</ele>
        <time>2016-05-25T11:41:21Z</time>
      </trkpt>
      <trkpt lat="44.81966" lon="-0.34581">
        <ele>36.67</ele>
        <time>2016-05-25T11:41:36Z</time>
      </trkpt>
      <trkpt lat="44.81961" lon="-0.34581">
        <ele>36.19</ele>
        <time>2016-05-25T11:42:03Z</time>
      </trkpt>
      <trkpt lat="44.81962" lon="-0.34586">
        <ele>35.71</ele>
        <time>2016-05-25T11:42:35Z</time>
      </trkpt>
      <trkpt lat="44.81974" lon="-0.34589">
        <ele>34.26</ele>
        <time>2016-05-25T11:42:47Z</time>
      </trkpt>
      <trkpt lat="44.82002" lon="-0.34591">
        <ele>32.34</ele>
        <time>2016-05-25T11:43:07Z</time>
      </trkpt>
      <trkpt lat="44.82018" lon="-0.34614">
        <ele>30.42</ele>
        <time>2016-05-25T11:43:27Z</time>
      </trkpt>
      <trkpt lat="44.82027" lon="-0.34644">
        <ele>29.46</ele>
        <time>2016-05-25T11:43:45Z</time>
      </trkpt>
      <trkpt lat="44.8203" lon="-0.3466">
        <ele>28.5</ele>
        <time>2016-05-25T11:43:55Z</time>
      </trkpt>
      <trkpt lat="44.82036" lon="-0.3468">
        <ele>27.53</ele>
        <time>2016-05-25T11:44:08Z</time>
      </trkpt>
      <trkpt lat="44.82041" lon="-0.34709">
        <ele>26.57</ele>
        <time>2016-05-25T11:44:24Z</time>
      </trkpt>
      <trkpt lat="44.82044" lon="-0.34724">
        <ele>25.13</ele>
        <time>2016-05-25T11:44:32Z</time>
      </trkpt>
      <trkpt lat="44.82048" lon="-0.34757">
        <ele>23.69</ele>
        <time>2016-05-25T11:44:51Z</time>
      </trkpt>
      <trkpt lat="44.82043" lon="-0.34783">
        <ele>22.73</ele>
        <time>2016-05-25T11:45:05Z</time>
      </trkpt>
      <trkpt lat="44.82025" lon="-0.34786">
        <ele>22.73</ele>
        <time>2016-05-25T11:45:14Z</time>
      </trkpt>
      <trkpt lat="44.82006" lon="-0.3479">
        <ele>22.25</ele>
        <time>2016-05-25T11:45:33Z</time>
      </trkpt>
      <trkpt lat="44.82004" lon="-0.3479">
        <ele>24.17</ele>
        <time>2016-05-25T11:45:35Z</time>
      </trkpt>
      <trkpt lat="44.81992" lon="-0.3479">
        <ele>23.21</ele>
        <time>2016-05-25T11:45:44Z</time>
      </trkpt>
      <trkpt lat="44.81988" lon="-0.34791">
        <ele>24.65</ele>
        <time>2016-05-25T11:45:47Z</time>
      </trkpt>
      <trkpt lat="44.81967" lon="-0.34791">
        <ele>24.65</ele>
        <time>2016-05-25T11:46:02Z</time>
      </trkpt>
      <trkpt lat="44.81945" lon="-0.3479">
        <ele>25.13</ele>
        <time>2016-05-25T11:46:18Z</time>
      </trkpt>
      <trkpt lat="44.81936" lon="-0.3479">
        <ele>23.69</ele>
        <time>2016-05-25T11:46:25Z</time>
      </trkpt>
      <trkpt lat="44.81923" lon="-0.34789">
        <ele>25.61</ele>
        <time>2016-05-25T11:46:36Z</time>
      </trkpt>
      <trkpt lat="44.81918" lon="-0.34788">
        <ele>24.17</ele>
        <time>2016-05-25T11:46:39Z</time>
      </trkpt>
      <trkpt lat="44.81909" lon="-0.34789">
        <ele>25.61</ele>
        <time>2016-05-25T11:46:45Z</time>
      </trkpt>
      <trkpt lat="44.81899" lon="-0.34794">
        <ele>23.69</ele>
        <time>2016-05-25T11:46:53Z</time>
      </trkpt>
      <trkpt lat="44.81876" lon="-0.34788">
        <ele>25.61</ele>
        <time>2016-05-25T11:47:12Z</time>
      </trkpt>
      <trkpt lat="44.81859" lon="-0.34788">
        <ele>25.13</ele>
        <time>2016-05-25T11:47:23Z</time>
      </trkpt>
      <trkpt lat="44.81829" lon="-0.34793">
        <ele>25.61</ele>
        <time>2016-05-25T11:47:48Z</time>
      </trkpt>
      <trkpt lat="44.81799" lon="-0.348">
        <ele>26.57</ele>
        <time>2016-05-25T11:48:11Z</time>
      </trkpt>
      <trkpt lat="44.81793" lon="-0.34801">
        <ele>24.65</ele>
        <time>2016-05-25T11:48:15Z</time>
      </trkpt>
      <trkpt lat="44.8179" lon="-0.34802">
        <ele>26.09</ele>
        <time>2016-05-25T11:48:17Z</time>
      </trkpt>
      <trkpt lat="44.81778" lon="-0.34808">
        <ele>26.57</ele>
        <time>2016-05-25T11:48:26Z</time>
      </trkpt>
      <trkpt lat="44.81772" lon="-0.3481">
        <ele>25.13</ele>
        <time>2016-05-25T11:48:30Z</time>
      </trkpt>
      <trkpt lat="44.8177" lon="-0.34809">
        <ele>26.57</ele>
        <time>2016-05-25T11:48:32Z</time>
      </trkpt>
      <trkpt lat="44.81757" lon="-0.34809">
        <ele>25.13</ele>
        <time>2016-05-25T11:48:40Z</time>
      </trkpt>
      <trkpt lat="44.81755" lon="-0.3481">
        <ele>26.57</ele>
        <time>2016-05-25T11:48:42Z</time>
      </trkpt>
      <trkpt lat="44.81744" lon="-0.34814">
        <ele>25.13</ele>
        <time>2016-05-25T11:48:52Z</time>
      </trkpt>
      <trkpt lat="44.81741" lon="-0.34813">
        <ele>26.57</ele>
        <time>2016-05-25T11:48:54Z</time>
      </trkpt>
      <trkpt lat="44.81709" lon="-0.34821">
        <ele>27.05</ele>
        <time>2016-05-25T11:49:15Z</time>
      </trkpt>
      <trkpt lat="44.81695" lon="-0.34827">
        <ele>25.61</ele>
        <time>2016-05-25T11:49:26Z</time>
      </trkpt>
      <trkpt lat="44.81691" lon="-0.34829">
        <ele>27.05</ele>
        <time>2016-05-25T11:49:28Z</time>
      </trkpt>
      <trkpt lat="44.81673" lon="-0.3484">
        <ele>27.05</ele>
        <time>2016-05-25T11:49:42Z</time>
      </trkpt>
      <trkpt lat="44.81667" lon="-0.34848">
        <ele>25.61</ele>
        <time>2016-05-25T11:49:48Z</time>
      </trkpt>
      <trkpt lat="44.81666" lon="-0.3485">
        <ele>27.53</ele>
        <time>2016-05-25T11:49:50Z</time>
      </trkpt>
      <trkpt lat="44.81663" lon="-0.34854">
        <ele>26.09</ele>
        <time>2016-05-25T11:49:54Z</time>
      </trkpt>
      <trkpt lat="44.81659" lon="-0.34862">
        <ele>27.53</ele>
        <time>2016-05-25T11:49:59Z</time>
      </trkpt>
      <trkpt lat="44.81652" lon="-0.34879">
        <ele>27.53</ele>
        <time>2016-05-25T11:50:09Z</time>
      </trkpt>
      <trkpt lat="44.81651" lon="-0.34886">
        <ele>27.53</ele>
        <time>2016-05-25T11:50:13Z</time>
      </trkpt>
      <trkpt lat="44.8165" lon="-0.34891">
        <ele>26.57</ele>
        <time>2016-05-25T11:50:16Z</time>
      </trkpt>
      <trkpt lat="44.81649" lon="-0.34893">
        <ele>26.57</ele>
        <time>2016-05-25T11:50:17Z</time>
      </trkpt>
      <trkpt lat="44.81647" lon="-0.34898">
        <ele>26.57</ele>
        <time>2016-05-25T11:50:21Z</time>
      </trkpt>
      <trkpt lat="44.81634" lon="-0.34926">
        <ele>25.61</ele>
        <time>2016-05-25T11:50:38Z</time>
      </trkpt>
      <trkpt lat="44.81621" lon="-0.34958">
        <ele>24.65</ele>
        <time>2016-05-25T11:50:57Z</time>
      </trkpt>
      <trkpt lat="44.81617" lon="-0.34986">
        <ele>25.13</ele>
        <time>2016-05-25T11:51:12Z</time>
      </trkpt>
      <trkpt lat="44.81616" lon="-0.3499">
        <ele>23.69</ele>
        <time>2016-05-25T11:51:15Z</time>
      </trkpt>
      <trkpt lat="44.8161" lon="-0.35024">
        <ele>23.21</ele>
        <time>2016-05-25T11:51:36Z</time>
      </trkpt>
      <trkpt lat="44.81613" lon="-0.35041">
        <ele>23.21</ele>
        <time>2016-05-25T11:51:46Z</time>
      </trkpt>
      <trkpt lat="44.81612" lon="-0.35044">
        <ele>21.77</ele>
        <time>2016-05-25T11:51:48Z</time>
      </trkpt>
      <trkpt lat="44.81611" lon="-0.35083">
        <ele>22.25</ele>
        <time>2016-05-25T11:52:07Z</time>
      </trkpt>
      <trkpt lat="44.81608" lon="-0.35102">
        <ele>23.21</ele>
        <time>2016-05-25T11:52:16Z</time>
      </trkpt>
      <trkpt lat="44.81623" lon="-0.35105">
        <ele>21.77</ele>
        <time>2016-05-25T11:52:31Z</time>
      </trkpt>
      <trkpt lat="44.81628" lon="-0.35104">
        <ele>23.21</ele>
        <time>2016-05-25T11:52:33Z</time>
      </trkpt>
      <trkpt lat="44.81651" lon="-0.35098">
        <ele>23.69</ele>
        <time>2016-05-25T11:52:54Z</time>
      </trkpt>
      <trkpt lat="44.81655" lon="-0.35097">
        <ele>22.25</ele>
        <time>2016-05-25T11:52:57Z</time>
      </trkpt>
      <trkpt lat="44.8167" lon="-0.35086">
        <ele>22.73</ele>
        <time>2016-05-25T11:53:12Z</time>
      </trkpt>
      <trkpt lat="44.81684" lon="-0.35078">
        <ele>24.17</ele>
        <time>2016-05-25T11:53:37Z</time>
      </trkpt>
      <trkpt lat="44.81708" lon="-0.35069">
        <ele>25.61</ele>
        <time>2016-05-25T11:53:51Z</time>
      </trkpt>
      <trkpt lat="44.81711" lon="-0.35068">
        <ele>24.17</ele>
        <time>2016-05-25T11:53:53Z</time>
      </trkpt>
      <trkpt lat="44.81719" lon="-0.35063">
        <ele>25.61</ele>
        <time>2016-05-25T11:53:58Z</time>
      </trkpt>
      <trkpt lat="44.81732" lon="-0.35061">
        <ele>26.57</ele>
        <time>2016-05-25T11:54:05Z</time>
      </trkpt>
      <trkpt lat="44.8174" lon="-0.35058">
        <ele>25.61</ele>
        <time>2016-05-25T11:54:11Z</time>
      </trkpt>
      <trkpt lat="44.81775" lon="-0.35045">
        <ele>27.05</ele>
        <time>2016-05-25T11:54:38Z</time>
      </trkpt>
      <trkpt lat="44.81776" lon="-0.35046">
        <ele>27.05</ele>
        <time>2016-05-25T11:54:39Z</time>
      </trkpt>
      <trkpt lat="44.81779" lon="-0.35049">
        <ele>25.13</ele>
        <time>2016-05-25T11:54:41Z</time>
      </trkpt>
      <trkpt lat="44.81796" lon="-0.35071">
        <ele>25.13</ele>
        <time>2016-05-25T11:55:01Z</time>
      </trkpt>
      <trkpt lat="44.81797" lon="-0.35072">
        <ele>28.5</ele>
        <time>2016-05-25T11:55:02Z</time>
      </trkpt>
      <trkpt lat="44.81814" lon="-0.35106">
        <ele>27.53</ele>
        <time>2016-05-25T11:55:20Z</time>
      </trkpt>
      <trkpt lat="44.81831" lon="-0.3513">
        <ele>26.09</ele>
        <time>2016-05-25T11:55:40Z</time>
      </trkpt>
      <trkpt lat="44.81837" lon="-0.35158">
        <ele>23.69</ele>
        <time>2016-05-25T11:56:00Z</time>
      </trkpt>
      <trkpt lat="44.81837" lon="-0.3516">
        <ele>23.69</ele>
        <time>2016-05-25T11:56:01Z</time>
      </trkpt>
      <trkpt lat="44.81835" lon="-0.35175">
        <ele>23.69</ele>
        <time>2016-05-25T11:56:09Z</time>
      </trkpt>
      <trkpt lat="44.81824" lon="-0.35205">
        <ele>24.17</ele>
        <time>2016-05-25T11:56:29Z</time>
      </trkpt>
      <trkpt lat="44.81822" lon="-0.35227">
        <ele>22.73</ele>
        <time>2016-05-25T11:56:37Z</time>
      </trkpt>
      <trkpt lat="44.81813" lon="-0.35258">
        <ele>23.21</ele>
        <time>2016-05-25T11:56:58Z</time>
      </trkpt>
      <trkpt lat="44.81812" lon="-0.3526">
        <ele>21.77</ele>
        <time>2016-05-25T11:57:01Z</time>
      </trkpt>
      <trkpt lat="44.81817" lon="-0.35268">
        <ele>22.25</ele>
        <time>2016-05-25T11:57:14Z</time>
      </trkpt>
      <trkpt lat="44.81832" lon="-0.35296">
        <ele>21.77</ele>
        <time>2016-05-25T11:57:34Z</time>
      </trkpt>
      <trkpt lat="44.81834" lon="-0.35301">
        <ele>23.21</ele>
        <time>2016-05-25T11:57:37Z</time>
      </trkpt>
      <trkpt lat="44.81841" lon="-0.35313">
        <ele>21.77</ele>
        <time>2016-05-25T11:57:46Z</time>
      </trkpt>
      <trkpt lat="44.81856" lon="-0.35333">
        <ele>23.69</ele>
        <time>2016-05-25T11:58:08Z</time>
      </trkpt>
      <trkpt lat="44.81877" lon="-0.35317">
        <ele>24.65</ele>
        <time>2016-05-25T11:58:28Z</time>
      </trkpt>
      <trkpt lat="44.81877" lon="-0.35316">
        <ele>24.65</ele>
        <time>2016-05-25T11:58:29Z</time>
      </trkpt>
      <trkpt lat="44.8188" lon="-0.35312">
        <ele>21.29</ele>
        <time>2016-05-25T11:58:33Z</time>
      </trkpt>
      <trkpt lat="44.81881" lon="-0.35311">
        <ele>25.13</ele>
        <time>2016-05-25T11:58:34Z</time>
      </trkpt>
      <trkpt lat="44.81882" lon="-0.35304">
        <ele>25.61</ele>
        <time>2016-05-25T11:58:41Z</time>
      </trkpt>
      <trkpt lat="44.81882" lon="-0.35294">
        <ele>25.61</ele>
        <time>2016-05-25T11:58:48Z</time>
      </trkpt>
      <trkpt lat="44.81884" lon="-0.35293">
        <ele>26.57</ele>
        <time>2016-05-25T11:58:57Z</time>
      </trkpt>
      <trkpt lat="44.81886" lon="-0.3529">
        <ele>25.13</ele>
        <time>2016-05-25T11:58:59Z</time>
      </trkpt>
      <trkpt lat="44.81916" lon="-0.35302">
        <ele>26.57</ele>
        <time>2016-05-25T11:59:16Z</time>
      </trkpt>
      <trkpt lat="44.81919" lon="-0.35305">
        <ele>28.02</ele>
        <time>2016-05-25T11:59:23Z</time>
      </trkpt>
      <trkpt lat="44.81936" lon="-0.35314">
        <ele>28.5</ele>
        <time>2016-05-25T11:59:38Z</time>
      </trkpt>
      <trkpt lat="44.81937" lon="-0.35315">
        <ele>29.94</ele>
        <time>2016-05-25T11:59:40Z</time>
      </trkpt>
      <trkpt lat="44.8194" lon="-0.35322">
        <ele>30.9</ele>
        <time>2016-05-25T11:59:48Z</time>
      </trkpt>
      <trkpt lat="44.81948" lon="-0.35337">
        <ele>34.26</ele>
        <time>2016-05-25T12:00:03Z</time>
      </trkpt>
      <trkpt lat="44.81952" lon="-0.3534">
        <ele>29.94</ele>
        <time>2016-05-25T12:00:09Z</time>
      </trkpt>
      <trkpt lat="44.81953" lon="-0.3534">
        <ele>33.78</ele>
        <time>2016-05-25T12:00:10Z</time>
      </trkpt>
      <trkpt lat="44.81964" lon="-0.35352">
        <ele>32.34</ele>
        <time>2016-05-25T12:00:20Z</time>
      </trkpt>
      <trkpt lat="44.81968" lon="-0.35355">
        <ele>33.78</ele>
        <time>2016-05-25T12:00:23Z</time>
      </trkpt>
      <trkpt lat="44.81972" lon="-0.35357">
        <ele>32.34</ele>
        <time>2016-05-25T12:00:26Z</time>
      </trkpt>
      <trkpt lat="44.81974" lon="-0.35359">
        <ele>34.26</ele>
        <time>2016-05-25T12:00:28Z</time>
      </trkpt>
      <trkpt lat="44.81984" lon="-0.35365">
        <ele>34.26</ele>
        <time>2016-05-25T12:00:34Z</time>
      </trkpt>
      <trkpt lat="44.82001" lon="-0.35381">
        <ele>34.74</ele>
        <time>2016-05-25T12:00:52Z</time>
      </trkpt>
      <trkpt lat="44.82015" lon="-0.35392">
        <ele>34.26</ele>
        <time>2016-05-25T12:01:09Z</time>
      </trkpt>
      <trkpt lat="44.82017" lon="-0.35395">
        <ele>35.71</ele>
        <time>2016-05-25T12:01:14Z</time>
      </trkpt>
      <trkpt lat="44.82018" lon="-0.35403">
        <ele>35.71</ele>
        <time>2016-05-25T12:01:28Z</time>
      </trkpt>
      <trkpt lat="44.82031" lon="-0.35421">
        <ele>36.19</ele>
        <time>2016-05-25T12:01:45Z</time>
      </trkpt>
      <trkpt lat="44.82038" lon="-0.35428">
        <ele>36.19</ele>
        <time>2016-05-25T12:01:52Z</time>
      </trkpt>
      <trkpt lat="44.82041" lon="-0.35434">
        <ele>34.74</ele>
        <time>2016-05-25T12:01:56Z</time>
      </trkpt>
      <trkpt lat="44.82044" lon="-0.35441">
        <ele>36.19</ele>
        <time>2016-05-25T12:02:01Z</time>
      </trkpt>
      <trkpt lat="44.82061" lon="-0.35466">
        <ele>35.71</ele>
        <time>2016-05-25T12:02:20Z</time>
      </trkpt>
      <trkpt lat="44.82075" lon="-0.35489">
        <ele>36.67</ele>
        <time>2016-05-25T12:02:37Z</time>
      </trkpt>
      <trkpt lat="44.82089" lon="-0.35518">
        <ele>35.71</ele>
        <time>2016-05-25T12:02:56Z</time>
      </trkpt>
      <trkpt lat="44.82089" lon="-0.35519">
        <ele>35.71</ele>
        <time>2016-05-25T12:02:57Z</time>
      </trkpt>
      <trkpt lat="44.8209" lon="-0.35522">
        <ele>37.15</ele>
        <time>2016-05-25T12:02:59Z</time>
      </trkpt>
      <trkpt lat="44.82093" lon="-0.3553">
        <ele>35.71</ele>
        <time>2016-05-25T12:03:04Z</time>
      </trkpt>
      <trkpt lat="44.82095" lon="-0.35533">
        <ele>35.71</ele>
        <time>2016-05-25T12:03:06Z</time>
      </trkpt>
      <trkpt lat="44.82105" lon="-0.35553">
        <ele>37.15</ele>
        <time>2016-05-25T12:03:23Z</time>
      </trkpt>
      <trkpt lat="44.82111" lon="-0.3558">
        <ele>38.59</ele>
        <time>2016-05-25T12:03:41Z</time>
      </trkpt>
      <trkpt lat="44.8211" lon="-0.35583">
        <ele>38.59</ele>
        <time>2016-05-25T12:03:57Z</time>
      </trkpt>
      <trkpt lat="44.82114" lon="-0.35623">
        <ele>40.51</ele>
        <time>2016-05-25T12:04:19Z</time>
      </trkpt>
      <trkpt lat="44.82118" lon="-0.35637">
        <ele>40.99</ele>
        <time>2016-05-25T12:04:26Z</time>
      </trkpt>
      <trkpt lat="44.82123" lon="-0.35673">
        <ele>40.99</ele>
        <time>2016-05-25T12:04:48Z</time>
      </trkpt>
      <trkpt lat="44.82123" lon="-0.35678">
        <ele>42.92</ele>
        <time>2016-05-25T12:04:51Z</time>
      </trkpt>
      <trkpt lat="44.82124" lon="-0.35719">
        <ele>42.44</ele>
        <time>2016-05-25T12:05:11Z</time>
      </trkpt>
      <trkpt lat="44.82128" lon="-0.35741">
        <ele>46.28</ele>
        <time>2016-05-25T12:05:23Z</time>
      </trkpt>
      <trkpt lat="44.82128" lon="-0.35742">
        <ele>46.28</ele>
        <time>2016-05-25T12:05:24Z</time>
      </trkpt>
      <trkpt lat="44.82127" lon="-0.35746">
        <ele>46.28</ele>
        <time>2016-05-25T12:05:26Z</time>
      </trkpt>
      <trkpt lat="44.82126" lon="-0.35751">
        <ele>45.32</ele>
        <time>2016-05-25T12:05:29Z</time>
      </trkpt>
      <trkpt lat="44.82126" lon="-0.35759">
        <ele>46.28</ele>
        <time>2016-05-25T12:05:33Z</time>
      </trkpt>
      <trkpt lat="44.82127" lon="-0.35779">
        <ele>46.76</ele>
        <time>2016-05-25T12:05:49Z</time>
      </trkpt>
      <trkpt lat="44.82131" lon="-0.35785">
        <ele>46.28</ele>
        <time>2016-05-25T12:05:59Z</time>
      </trkpt>
      <trkpt lat="44.82152" lon="-0.3578">
        <ele>45.32</ele>
        <time>2016-05-25T12:06:17Z</time>
      </trkpt>
      <trkpt lat="44.82153" lon="-0.3578">
        <ele>45.32</ele>
        <time>2016-05-25T12:06:18Z</time>
      </trkpt>
      <trkpt lat="44.82179" lon="-0.35777">
        <ele>44.84</ele>
        <time>2016-05-25T12:06:38Z</time>
      </trkpt>
      <trkpt lat="44.82184" lon="-0.35775">
        <ele>43.4</ele>
        <time>2016-05-25T12:06:43Z</time>
      </trkpt>
      <trkpt lat="44.8219" lon="-0.35771">
        <ele>44.84</ele>
        <time>2016-05-25T12:06:48Z</time>
      </trkpt>
      <trkpt lat="44.82208" lon="-0.35741">
        <ele>43.4</ele>
        <time>2016-05-25T12:07:10Z</time>
      </trkpt>
      <trkpt lat="44.82212" lon="-0.35732">
        <ele>41.95</ele>
        <time>2016-05-25T12:07:19Z</time>
      </trkpt>
      <trkpt lat="44.82215" lon="-0.35729">
        <ele>43.4</ele>
        <time>2016-05-25T12:07:23Z</time>
      </trkpt>
      <trkpt lat="44.82223" lon="-0.35719">
        <ele>41.95</ele>
        <time>2016-05-25T12:07:34Z</time>
      </trkpt>
      <trkpt lat="44.82232" lon="-0.35704">
        <ele>41.47</ele>
        <time>2016-05-25T12:07:47Z</time>
      </trkpt>
      <trkpt lat="44.82248" lon="-0.35683">
        <ele>42.92</ele>
        <time>2016-05-25T12:08:04Z</time>
      </trkpt>
      <trkpt lat="44.82263" lon="-0.35659">
        <ele>40.99</ele>
        <time>2016-05-25T12:08:19Z</time>
      </trkpt>
      <trkpt lat="44.82286" lon="-0.35629">
        <ele>40.99</ele>
        <time>2016-05-25T12:08:41Z</time>
      </trkpt>
      <trkpt lat="44.82297" lon="-0.35617">
        <ele>39.55</ele>
        <time>2016-05-25T12:08:51Z</time>
      </trkpt>
      <trkpt lat="44.823" lon="-0.35615">
        <ele>40.99</ele>
        <time>2016-05-25T12:08:53Z</time>
      </trkpt>
      <trkpt lat="44.82317" lon="-0.35594">
        <ele>39.07</ele>
        <time>2016-05-25T12:09:14Z</time>
      </trkpt>
      <trkpt lat="44.82339" lon="-0.35574">
        <ele>37.63</ele>
        <time>2016-05-25T12:09:35Z</time>
      </trkpt>
      <trkpt lat="44.8235" lon="-0.35555">
        <ele>36.67</ele>
        <time>2016-05-25T12:09:56Z</time>
      </trkpt>
      <trkpt lat="44.82366" lon="-0.35531">
        <ele>35.23</ele>
        <time>2016-05-25T12:10:17Z</time>
      </trkpt>
      <trkpt lat="44.82393" lon="-0.35502">
        <ele>32.82</ele>
        <time>2016-05-25T12:10:43Z</time>
      </trkpt>
      <trkpt lat="44.82409" lon="-0.3548">
        <ele>31.86</ele>
        <time>2016-05-25T12:11:05Z</time>
      </trkpt>
      <trkpt lat="44.82426" lon="-0.35448">
        <ele>30.9</ele>
        <time>2016-05-25T12:11:29Z</time>
      </trkpt>
      <trkpt lat="44.82441" lon="-0.35423">
        <ele>29.46</ele>
        <time>2016-05-25T12:11:49Z</time>
      </trkpt>
      <trkpt lat="44.82464" lon="-0.35395">
        <ele>27.53</ele>
        <time>2016-05-25T12:12:12Z</time>
      </trkpt>
      <trkpt lat="44.82484" lon="-0.35376">
        <ele>26.09</ele>
        <time>2016-05-25T12:12:28Z</time>
      </trkpt>
      <trkpt lat="44.82489" lon="-0.35369">
        <ele>26.09</ele>
        <time>2016-05-25T12:12:34Z</time>
      </trkpt>
      <trkpt lat="44.82508" lon="-0.35337">
        <ele>24.65</ele>
        <time>2016-05-25T12:12:58Z</time>
      </trkpt>
      <trkpt lat="44.8251" lon="-0.35332">
        <ele>24.65</ele>
        <time>2016-05-25T12:13:14Z</time>
      </trkpt>
      <trkpt lat="44.82512" lon="-0.35332">
        <ele>24.17</ele>
        <time>2016-05-25T12:13:23Z</time>
      </trkpt>
      <trkpt lat="44.82529" lon="-0.35339">
        <ele>23.21</ele>
        <time>2016-05-25T12:13:40Z</time>
      </trkpt>
      <trkpt lat="44.82547" lon="-0.35347">
        <ele>22.73</ele>
        <time>2016-05-25T12:13:58Z</time>
      </trkpt>
      <trkpt lat="44.82563" lon="-0.35356">
        <ele>21.29</ele>
        <time>2016-05-25T12:14:15Z</time>
      </trkpt>
      <trkpt lat="44.82565" lon="-0.35358">
        <ele>22.73</ele>
        <time>2016-05-25T12:14:17Z</time>
      </trkpt>
      <trkpt lat="44.82568" lon="-0.35358">
        <ele>21.29</ele>
        <time>2016-05-25T12:14:20Z</time>
      </trkpt>
      <trkpt lat="44.82596" lon="-0.35365">
        <ele>20.81</ele>
        <time>2016-05-25T12:14:39Z</time>
      </trkpt>
      <trkpt lat="44.82611" lon="-0.35372">
        <ele>21.29</ele>
        <time>2016-05-25T12:14:52Z</time>
      </trkpt>
      <trkpt lat="44.82612" lon="-0.35378">
        <ele>20.81</ele>
        <time>2016-05-25T12:14:54Z</time>
      </trkpt>
      <trkpt lat="44.82629" lon="-0.35391">
        <ele>19.36</ele>
        <time>2016-05-25T12:15:08Z</time>
      </trkpt>
      <trkpt lat="44.82632" lon="-0.35393">
        <ele>21.29</ele>
        <time>2016-05-25T12:15:10Z</time>
      </trkpt>
      <trkpt lat="44.82635" lon="-0.35397">
        <ele>19.36</ele>
        <time>2016-05-25T12:15:14Z</time>
      </trkpt>
      <trkpt lat="44.8265" lon="-0.35416">
        <ele>20.81</ele>
        <time>2016-05-25T12:15:29Z</time>
      </trkpt>
      <trkpt lat="44.82662" lon="-0.35434">
        <ele>21.29</ele>
        <time>2016-05-25T12:15:46Z</time>
      </trkpt>
      <trkpt lat="44.82666" lon="-0.3544">
        <ele>20.32</ele>
        <time>2016-05-25T12:15:50Z</time>
      </trkpt>
      <trkpt lat="44.82672" lon="-0.35452">
        <ele>21.29</ele>
        <time>2016-05-25T12:15:58Z</time>
      </trkpt>
      <trkpt lat="44.82674" lon="-0.35457">
        <ele>19.84</ele>
        <time>2016-05-25T12:16:01Z</time>
      </trkpt>
      <trkpt lat="44.82676" lon="-0.35463">
        <ele>21.29</ele>
        <time>2016-05-25T12:16:04Z</time>
      </trkpt>
      <trkpt lat="44.82678" lon="-0.3547">
        <ele>21.77</ele>
        <time>2016-05-25T12:16:08Z</time>
      </trkpt>
      <trkpt lat="44.82682" lon="-0.35502">
        <ele>21.77</ele>
        <time>2016-05-25T12:16:25Z</time>
      </trkpt>
      <trkpt lat="44.8269" lon="-0.35531">
        <ele>21.29</ele>
        <time>2016-05-25T12:16:41Z</time>
      </trkpt>
      <trkpt lat="44.82693" lon="-0.35544">
        <ele>22.73</ele>
        <time>2016-05-25T12:16:49Z</time>
      </trkpt>
      <trkpt lat="44.827" lon="-0.35574">
        <ele>23.21</ele>
        <time>2016-05-25T12:17:06Z</time>
      </trkpt>
      <trkpt lat="44.82707" lon="-0.35583">
        <ele>23.21</ele>
        <time>2016-05-25T12:17:22Z</time>
      </trkpt>
      <trkpt lat="44.82711" lon="-0.35594">
        <ele>23.69</ele>
        <time>2016-05-25T12:17:36Z</time>
      </trkpt>
      <trkpt lat="44.82712" lon="-0.35596">
        <ele>22.73</ele>
        <time>2016-05-25T12:17:43Z</time>
      </trkpt>
      <trkpt lat="44.8272" lon="-0.35609">
        <ele>22.73</ele>
        <time>2016-05-25T12:17:55Z</time>
      </trkpt>
      <trkpt lat="44.82721" lon="-0.35615">
        <ele>24.17</ele>
        <time>2016-05-25T12:17:59Z</time>
      </trkpt>
      <trkpt lat="44.82728" lon="-0.35625">
        <ele>22.73</ele>
        <time>2016-05-25T12:18:07Z</time>
      </trkpt>
      <trkpt lat="44.8273" lon="-0.35627">
        <ele>24.65</ele>
        <time>2016-05-25T12:18:09Z</time>
      </trkpt>
      <trkpt lat="44.82738" lon="-0.35641">
        <ele>25.13</ele>
        <time>2016-05-25T12:18:20Z</time>
      </trkpt>
      <trkpt lat="44.82755" lon="-0.35671">
        <ele>26.57</ele>
        <time>2016-05-25T12:18:39Z</time>
      </trkpt>
      <trkpt lat="44.82757" lon="-0.35676">
        <ele>25.13</ele>
        <time>2016-05-25T12:18:42Z</time>
      </trkpt>
      <trkpt lat="44.82766" lon="-0.35706">
        <ele>27.05</ele>
        <time>2016-05-25T12:18:59Z</time>
      </trkpt>
      <trkpt lat="44.82768" lon="-0.35712">
        <ele>28.02</ele>
        <time>2016-05-25T12:19:03Z</time>
      </trkpt>
      <trkpt lat="44.8277" lon="-0.35718">
        <ele>26.57</ele>
        <time>2016-05-25T12:19:06Z</time>
      </trkpt>
      <trkpt lat="44.82774" lon="-0.35731">
        <ele>28.02</ele>
        <time>2016-05-25T12:19:14Z</time>
      </trkpt>
      <trkpt lat="44.82781" lon="-0.35748">
        <ele>26.09</ele>
        <time>2016-05-25T12:19:25Z</time>
      </trkpt>
      <trkpt lat="44.82785" lon="-0.35762">
        <ele>27.53</ele>
        <time>2016-05-25T12:19:33Z</time>
      </trkpt>
      <trkpt lat="44.82794" lon="-0.35791">
        <ele>27.05</ele>
        <time>2016-05-25T12:19:50Z</time>
      </trkpt>
      <trkpt lat="44.82802" lon="-0.35817">
        <ele>25.61</ele>
        <time>2016-05-25T12:20:06Z</time>
      </trkpt>
      <trkpt lat="44.82809" lon="-0.35839">
        <ele>25.13</ele>
        <time>2016-05-25T12:20:20Z</time>
      </trkpt>
      <trkpt lat="44.82819" lon="-0.35868">
        <ele>24.17</ele>
        <time>2016-05-25T12:20:38Z</time>
      </trkpt>
      <trkpt lat="44.82821" lon="-0.35874">
        <ele>24.17</ele>
        <time>2016-05-25T12:20:42Z</time>
      </trkpt>
      <trkpt lat="44.82823" lon="-0.35881">
        <ele>23.21</ele>
        <time>2016-05-25T12:20:47Z</time>
      </trkpt>
      <trkpt lat="44.82836" lon="-0.35908">
        <ele>22.73</ele>
        <time>2016-05-25T12:21:06Z</time>
      </trkpt>
      <trkpt lat="44.8285" lon="-0.35933">
        <ele>22.73</ele>
        <time>2016-05-25T12:21:22Z</time>
      </trkpt>
      <trkpt lat="44.82854" lon="-0.35938">
        <ele>21.29</ele>
        <time>2016-05-25T12:21:26Z</time>
      </trkpt>
      <trkpt lat="44.82861" lon="-0.35952">
        <ele>20.81</ele>
        <time>2016-05-25T12:21:36Z</time>
      </trkpt>
      <trkpt lat="44.82874" lon="-0.35975">
        <ele>19.84</ele>
        <time>2016-05-25T12:21:53Z</time>
      </trkpt>
      <trkpt lat="44.82893" lon="-0.36002">
        <ele>20.81</ele>
        <time>2016-05-25T12:22:13Z</time>
      </trkpt>
      <trkpt lat="44.82896" lon="-0.36009">
        <ele>18.88</ele>
        <time>2016-05-25T12:22:17Z</time>
      </trkpt>
      <trkpt lat="44.82898" lon="-0.36012">
        <ele>20.32</ele>
        <time>2016-05-25T12:22:19Z</time>
      </trkpt>
      <trkpt lat="44.82901" lon="-0.36018">
        <ele>18.88</ele>
        <time>2016-05-25T12:22:23Z</time>
      </trkpt>
      <trkpt lat="44.82902" lon="-0.36021">
        <ele>20.32</ele>
        <time>2016-05-25T12:22:25Z</time>
      </trkpt>
      <trkpt lat="44.82907" lon="-0.36031">
        <ele>18.88</ele>
        <time>2016-05-25T12:22:32Z</time>
      </trkpt>
      <trkpt lat="44.82909" lon="-0.3604">
        <ele>20.81</ele>
        <time>2016-05-25T12:22:38Z</time>
      </trkpt>
      <trkpt lat="44.8291" lon="-0.36044">
        <ele>19.84</ele>
        <time>2016-05-25T12:22:40Z</time>
      </trkpt>
      <trkpt lat="44.82918" lon="-0.36064">
        <ele>18.88</ele>
        <time>2016-05-25T12:22:52Z</time>
      </trkpt>
      <trkpt lat="44.82919" lon="-0.36072">
        <ele>20.32</ele>
        <time>2016-05-25T12:22:57Z</time>
      </trkpt>
      <trkpt lat="44.82931" lon="-0.36102">
        <ele>20.81</ele>
        <time>2016-05-25T12:23:14Z</time>
      </trkpt>
      <trkpt lat="44.82935" lon="-0.36115">
        <ele>21.77</ele>
        <time>2016-05-25T12:23:22Z</time>
      </trkpt>
      <trkpt lat="44.82938" lon="-0.36122">
        <ele>20.32</ele>
        <time>2016-05-25T12:23:27Z</time>
      </trkpt>
      <trkpt lat="44.8294" lon="-0.36124">
        <ele>21.29</ele>
        <time>2016-05-25T12:23:29Z</time>
      </trkpt>
      <trkpt lat="44.82942" lon="-0.36129">
        <ele>19.84</ele>
        <time>2016-05-25T12:23:32Z</time>
      </trkpt>
      <trkpt lat="44.82945" lon="-0.36132">
        <ele>21.29</ele>
        <time>2016-05-25T12:23:35Z</time>
      </trkpt>
      <trkpt lat="44.82964" lon="-0.36151">
        <ele>21.77</ele>
        <time>2016-05-25T12:23:53Z</time>
      </trkpt>
      <trkpt lat="44.82965" lon="-0.36152">
        <ele>21.77</ele>
        <time>2016-05-25T12:23:54Z</time>
      </trkpt>
      <trkpt lat="44.82984" lon="-0.36173">
        <ele>20.81</ele>
        <time>2016-05-25T12:24:14Z</time>
      </trkpt>
      <trkpt lat="44.82985" lon="-0.36174">
        <ele>20.81</ele>
        <time>2016-05-25T12:24:15Z</time>
      </trkpt>
      <trkpt lat="44.82989" lon="-0.36178">
        <ele>22.25</ele>
        <time>2016-05-25T12:24:18Z</time>
      </trkpt>
      <trkpt lat="44.83009" lon="-0.36198">
        <ele>23.21</ele>
        <time>2016-05-25T12:24:35Z</time>
      </trkpt>
      <trkpt lat="44.8302" lon="-0.36224">
        <ele>24.17</ele>
        <time>2016-05-25T12:24:50Z</time>
      </trkpt>
      <trkpt lat="44.83021" lon="-0.36253">
        <ele>25.61</ele>
        <time>2016-05-25T12:25:06Z</time>
      </trkpt>
      <trkpt lat="44.83022" lon="-0.36273">
        <ele>26.09</ele>
        <time>2016-05-25T12:25:22Z</time>
      </trkpt>
      <trkpt lat="44.83022" lon="-0.36282">
        <ele>26.09</ele>
        <time>2016-05-25T12:25:30Z</time>
      </trkpt>
      <trkpt lat="44.83016" lon="-0.36289">
        <ele>27.05</ele>
        <time>2016-05-25T12:25:46Z</time>
      </trkpt>
      <trkpt lat="44.83009" lon="-0.36295">
        <ele>27.05</ele>
        <time>2016-05-25T12:26:21Z</time>
      </trkpt>
      <trkpt lat="44.83007" lon="-0.36292">
        <ele>27.05</ele>
        <time>2016-05-25T12:26:49Z</time>
      </trkpt>
      <trkpt lat="44.83" lon="-0.36297">
        <ele>27.53</ele>
        <time>2016-05-25T12:27:10Z</time>
      </trkpt>
      <trkpt lat="44.82995" lon="-0.36301">
        <ele>27.53</ele>
        <time>2016-05-25T12:27:16Z</time>
      </trkpt>
      <trkpt lat="44.8299" lon="-0.36306">
        <ele>27.05</ele>
        <time>2016-05-25T12:27:26Z</time>
      </trkpt>
      <trkpt lat="44.82977" lon="-0.36316">
        <ele>28.98</ele>
        <time>2016-05-25T12:27:39Z</time>
      </trkpt>
      <trkpt lat="44.82962" lon="-0.36329">
        <ele>27.53</ele>
        <time>2016-05-25T12:27:55Z</time>
      </trkpt>
      <trkpt lat="44.82957" lon="-0.36336">
        <ele>29.94</ele>
        <time>2016-05-25T12:28:02Z</time>
      </trkpt>
      <trkpt lat="44.82954" lon="-0.36338">
        <ele>28.5</ele>
        <time>2016-05-25T12:28:05Z</time>
      </trkpt>
      <trkpt lat="44.8293" lon="-0.36351">
        <ele>31.38</ele>
        <time>2016-05-25T12:28:25Z</time>
      </trkpt>
      <trkpt lat="44.82916" lon="-0.36366">
        <ele>33.3</ele>
        <time>2016-05-25T12:28:45Z</time>
      </trkpt>
      <trkpt lat="44.82891" lon="-0.3638">
        <ele>34.74</ele>
        <time>2016-05-25T12:29:08Z</time>
      </trkpt>
      <trkpt lat="44.82865" lon="-0.36384">
        <ele>35.23</ele>
        <time>2016-05-25T12:29:25Z</time>
      </trkpt>
      <trkpt lat="44.82835" lon="-0.36378">
        <ele>35.71</ele>
        <time>2016-05-25T12:29:41Z</time>
      </trkpt>
      <trkpt lat="44.82826" lon="-0.36375">
        <ele>38.59</ele>
        <time>2016-05-25T12:29:50Z</time>
      </trkpt>
      <trkpt lat="44.82825" lon="-0.36374">
        <ele>37.63</ele>
        <time>2016-05-25T12:29:51Z</time>
      </trkpt>
      <trkpt lat="44.82816" lon="-0.36353">
        <ele>38.59</ele>
        <time>2016-05-25T12:30:10Z</time>
      </trkpt>
      <trkpt lat="44.82801" lon="-0.36339">
        <ele>39.07</ele>
        <time>2016-05-25T12:30:26Z</time>
      </trkpt>
      <trkpt lat="44.82793" lon="-0.36343">
        <ele>40.51</ele>
        <time>2016-05-25T12:30:35Z</time>
      </trkpt>
      <trkpt lat="44.82793" lon="-0.36352">
        <ele>41.47</ele>
        <time>2016-05-25T12:30:40Z</time>
      </trkpt>
      <trkpt lat="44.82798" lon="-0.36384">
        <ele>42.44</ele>
        <time>2016-05-25T12:31:00Z</time>
      </trkpt>
      <trkpt lat="44.82799" lon="-0.36397">
        <ele>42.44</ele>
        <time>2016-05-25T12:31:08Z</time>
      </trkpt>
      <trkpt lat="44.82801" lon="-0.3643">
        <ele>42.44</ele>
        <time>2016-05-25T12:31:26Z</time>
      </trkpt>
      <trkpt lat="44.82809" lon="-0.36457">
        <ele>42.92</ele>
        <time>2016-05-25T12:31:42Z</time>
      </trkpt>
      <trkpt lat="44.82814" lon="-0.36483">
        <ele>43.4</ele>
        <time>2016-05-25T12:31:58Z</time>
      </trkpt>
      <trkpt lat="44.82817" lon="-0.36504">
        <ele>43.88</ele>
        <time>2016-05-25T12:32:13Z</time>
      </trkpt>
      <trkpt lat="44.82825" lon="-0.36531">
        <ele>44.36</ele>
        <time>2016-05-25T12:32:28Z</time>
      </trkpt>
      <trkpt lat="44.82833" lon="-0.36556">
        <ele>46.28</ele>
        <time>2016-05-25T12:32:44Z</time>
      </trkpt>
      <trkpt lat="44.82836" lon="-0.36563">
        <ele>44.36</ele>
        <time>2016-05-25T12:32:49Z</time>
      </trkpt>
      <trkpt lat="44.82837" lon="-0.36566">
        <ele>46.28</ele>
        <time>2016-05-25T12:32:51Z</time>
      </trkpt>
      <trkpt lat="44.82841" lon="-0.36583">
        <ele>46.76</ele>
        <time>2016-05-25T12:33:02Z</time>
      </trkpt>
      <trkpt lat="44.82847" lon="-0.36599">
        <ele>48.2</ele>
        <time>2016-05-25T12:33:14Z</time>
      </trkpt>
      <trkpt lat="44.82849" lon="-0.36605">
        <ele>48.2</ele>
        <time>2016-05-25T12:33:18Z</time>
      </trkpt>
      <trkpt lat="44.82856" lon="-0.36626">
        <ele>49.16</ele>
        <time>2016-05-25T12:33:30Z</time>
      </trkpt>
      <trkpt lat="44.82857" lon="-0.3663">
        <ele>48.2</ele>
        <time>2016-05-25T12:33:41Z</time>
      </trkpt>
      <trkpt lat="44.82855" lon="-0.36655">
        <ele>49.16</ele>
        <time>2016-05-25T12:33:56Z</time>
      </trkpt>
      <trkpt lat="44.82854" lon="-0.36664">
        <ele>49.16</ele>
        <time>2016-05-25T12:34:01Z</time>
      </trkpt>
      <trkpt lat="44.82854" lon="-0.36679">
        <ele>51.57</ele>
        <time>2016-05-25T12:34:09Z</time>
      </trkpt>
      <trkpt lat="44.82848" lon="-0.36707">
        <ele>52.53</ele>
        <time>2016-05-25T12:34:25Z</time>
      </trkpt>
      <trkpt lat="44.82846" lon="-0.3673">
        <ele>53.97</ele>
        <time>2016-05-25T12:34:39Z</time>
      </trkpt>
      <trkpt lat="44.82847" lon="-0.36741">
        <ele>54.93</ele>
        <time>2016-05-25T12:34:45Z</time>
      </trkpt>
      <trkpt lat="44.82849" lon="-0.36769">
        <ele>54.93</ele>
        <time>2016-05-25T12:35:01Z</time>
      </trkpt>
      <trkpt lat="44.82849" lon="-0.36789">
        <ele>55.41</ele>
        <time>2016-05-25T12:35:16Z</time>
      </trkpt>
      <trkpt lat="44.82849" lon="-0.3679">
        <ele>55.41</ele>
        <time>2016-05-25T12:35:17Z</time>
      </trkpt>
      <trkpt lat="44.82846" lon="-0.368">
        <ele>55.89</ele>
        <time>2016-05-25T12:35:24Z</time>
      </trkpt>
      <trkpt lat="44.8283" lon="-0.36808">
        <ele>57.82</ele>
        <time>2016-05-25T12:35:44Z</time>
      </trkpt>
      <trkpt lat="44.82821" lon="-0.36811">
        <ele>57.82</ele>
        <time>2016-05-25T12:35:53Z</time>
      </trkpt>
      <trkpt lat="44.82809" lon="-0.36811">
        <ele>58.3</ele>
        <time>2016-05-25T12:36:14Z</time>
      </trkpt>
      <trkpt lat="44.82806" lon="-0.36811">
        <ele>56.86</ele>
        <time>2016-05-25T12:36:17Z</time>
      </trkpt>
      <trkpt lat="44.82785" lon="-0.36812">
        <ele>56.86</ele>
        <time>2016-05-25T12:36:34Z</time>
      </trkpt>
      <trkpt lat="44.82769" lon="-0.36809">
        <ele>55.41</ele>
        <time>2016-05-25T12:36:50Z</time>
      </trkpt>
      <trkpt lat="44.8274" lon="-0.36812">
        <ele>52.53</ele>
        <time>2016-05-25T12:37:16Z</time>
      </trkpt>
      <trkpt lat="44.82716" lon="-0.36824">
        <ele>50.61</ele>
        <time>2016-05-25T12:37:36Z</time>
      </trkpt>
      <trkpt lat="44.82701" lon="-0.36831">
        <ele>49.65</ele>
        <time>2016-05-25T12:37:47Z</time>
      </trkpt>
      <trkpt lat="44.82693" lon="-0.36835">
        <ele>49.16</ele>
        <time>2016-05-25T12:37:53Z</time>
      </trkpt>
      <trkpt lat="44.82667" lon="-0.36846">
        <ele>47.72</ele>
        <time>2016-05-25T12:38:11Z</time>
      </trkpt>
      <trkpt lat="44.82642" lon="-0.36862">
        <ele>46.28</ele>
        <time>2016-05-25T12:38:31Z</time>
      </trkpt>
      <trkpt lat="44.82638" lon="-0.36868">
        <ele>44.84</ele>
        <time>2016-05-25T12:38:36Z</time>
      </trkpt>
      <trkpt lat="44.82637" lon="-0.36877">
        <ele>44.84</ele>
        <time>2016-05-25T12:38:54Z</time>
      </trkpt>
      <trkpt lat="44.82629" lon="-0.36887">
        <ele>43.4</ele>
        <time>2016-05-25T12:39:11Z</time>
      </trkpt>
      <trkpt lat="44.82624" lon="-0.36894">
        <ele>42.92</ele>
        <time>2016-05-25T12:39:16Z</time>
      </trkpt>
      <trkpt lat="44.82611" lon="-0.36915">
        <ele>40.51</ele>
        <time>2016-05-25T12:39:35Z</time>
      </trkpt>
      <trkpt lat="44.82606" lon="-0.36922">
        <ele>40.51</ele>
        <time>2016-05-25T12:39:49Z</time>
      </trkpt>
      <trkpt lat="44.82604" lon="-0.36923">
        <ele>41.47</ele>
        <time>2016-05-25T12:39:52Z</time>
      </trkpt>
      <trkpt lat="44.82606" lon="-0.36933">
        <ele>41.47</ele>
        <time>2016-05-25T12:40:01Z</time>
      </trkpt>
      <trkpt lat="44.82604" lon="-0.36946">
        <ele>40.99</ele>
        <time>2016-05-25T12:40:10Z</time>
      </trkpt>
      <trkpt lat="44.82601" lon="-0.36953">
        <ele>39.55</ele>
        <time>2016-05-25T12:40:17Z</time>
      </trkpt>
      <trkpt lat="44.826" lon="-0.36956">
        <ele>40.99</ele>
        <time>2016-05-25T12:40:19Z</time>
      </trkpt>
      <trkpt lat="44.82595" lon="-0.36963">
        <ele>39.55</ele>
        <time>2016-05-25T12:40:27Z</time>
      </trkpt>
      <trkpt lat="44.82592" lon="-0.36967">
        <ele>39.55</ele>
        <time>2016-05-25T12:40:31Z</time>
      </trkpt>
      <trkpt lat="44.82582" lon="-0.36997">
        <ele>36.67</ele>
        <time>2016-05-25T12:40:51Z</time>
      </trkpt>
      <trkpt lat="44.82574" lon="-0.3702">
        <ele>37.63</ele>
        <time>2016-05-25T12:41:06Z</time>
      </trkpt>
      <trkpt lat="44.82573" lon="-0.3703">
        <ele>36.19</ele>
        <time>2016-05-25T12:41:20Z</time>
      </trkpt>
      <trkpt lat="44.82568" lon="-0.37034">
        <ele>36.19</ele>
        <time>2016-05-25T12:41:36Z</time>
      </trkpt>
      <trkpt lat="44.82564" lon="-0.37045">
        <ele>36.19</ele>
        <time>2016-05-25T12:41:44Z</time>
      </trkpt>
      <trkpt lat="44.8255" lon="-0.37063">
        <ele>33.78</ele>
        <time>2016-05-25T12:42:03Z</time>
      </trkpt>
      <trkpt lat="44.82535" lon="-0.37076">
        <ele>32.34</ele>
        <time>2016-05-25T12:42:19Z</time>
      </trkpt>
      <trkpt lat="44.82532" lon="-0.37078">
        <ele>33.78</ele>
        <time>2016-05-25T12:42:21Z</time>
      </trkpt>
      <trkpt lat="44.82524" lon="-0.3708">
        <ele>32.34</ele>
        <time>2016-05-25T12:42:29Z</time>
      </trkpt>
      <trkpt lat="44.8251" lon="-0.37094">
        <ele>32.82</ele>
        <time>2016-05-25T12:42:49Z</time>
      </trkpt>
      <trkpt lat="44.825" lon="-0.37097">
        <ele>31.38</ele>
        <time>2016-05-25T12:42:57Z</time>
      </trkpt>
      <trkpt lat="44.82498" lon="-0.37099">
        <ele>32.82</ele>
        <time>2016-05-25T12:42:59Z</time>
      </trkpt>
      <trkpt lat="44.82495" lon="-0.37103">
        <ele>31.38</ele>
        <time>2016-05-25T12:43:03Z</time>
      </trkpt>
      <trkpt lat="44.82494" lon="-0.37104">
        <ele>32.34</ele>
        <time>2016-05-25T12:43:05Z</time>
      </trkpt>
      <trkpt lat="44.8249" lon="-0.37107">
        <ele>30.9</ele>
        <time>2016-05-25T12:43:09Z</time>
      </trkpt>
      <trkpt lat="44.82469" lon="-0.37121">
        <ele>32.82</ele>
        <time>2016-05-25T12:43:29Z</time>
      </trkpt>
      <trkpt lat="44.8246" lon="-0.37122">
        <ele>31.38</ele>
        <time>2016-05-25T12:43:38Z</time>
      </trkpt>
      <trkpt lat="44.82434" lon="-0.37134">
        <ele>32.82</ele>
        <time>2016-05-25T12:43:56Z</time>
      </trkpt>
      <trkpt lat="44.82419" lon="-0.3714">
        <ele>33.78</ele>
        <time>2016-05-25T12:44:11Z</time>
      </trkpt>
      <trkpt lat="44.82395" lon="-0.37138">
        <ele>34.26</ele>
        <time>2016-05-25T12:44:29Z</time>
      </trkpt>
      <trkpt lat="44.82389" lon="-0.37139">
        <ele>38.11</ele>
        <time>2016-05-25T12:44:36Z</time>
      </trkpt>
      <trkpt lat="44.82385" lon="-0.3714">
        <ele>34.26</ele>
        <time>2016-05-25T12:44:38Z</time>
      </trkpt>
      <trkpt lat="44.82379" lon="-0.37137">
        <ele>33.78</ele>
        <time>2016-05-25T12:44:43Z</time>
      </trkpt>
      <trkpt lat="44.82377" lon="-0.37136">
        <ele>36.19</ele>
        <time>2016-05-25T12:44:45Z</time>
      </trkpt>
      <trkpt lat="44.82362" lon="-0.37125">
        <ele>37.15</ele>
        <time>2016-05-25T12:45:03Z</time>
      </trkpt>
      <trkpt lat="44.82354" lon="-0.37126">
        <ele>38.59</ele>
        <time>2016-05-25T12:45:13Z</time>
      </trkpt>
      <trkpt lat="44.82343" lon="-0.37126">
        <ele>40.99</ele>
        <time>2016-05-25T12:45:22Z</time>
      </trkpt>
      <trkpt lat="44.82339" lon="-0.37125">
        <ele>38.59</ele>
        <time>2016-05-25T12:45:25Z</time>
      </trkpt>
      <trkpt lat="44.82331" lon="-0.37124">
        <ele>40.51</ele>
        <time>2016-05-25T12:45:31Z</time>
      </trkpt>
      <trkpt lat="44.82307" lon="-0.37126">
        <ele>41.47</ele>
        <time>2016-05-25T12:45:54Z</time>
      </trkpt>
      <trkpt lat="44.82288" lon="-0.37127">
        <ele>44.84</ele>
        <time>2016-05-25T12:46:09Z</time>
      </trkpt>
      <trkpt lat="44.82272" lon="-0.37134">
        <ele>45.8</ele>
        <time>2016-05-25T12:46:24Z</time>
      </trkpt>
      <trkpt lat="44.8227" lon="-0.37135">
        <ele>44.84</ele>
        <time>2016-05-25T12:46:27Z</time>
      </trkpt>
      <trkpt lat="44.82267" lon="-0.37134">
        <ele>45.8</ele>
        <time>2016-05-25T12:46:30Z</time>
      </trkpt>
      <trkpt lat="44.8226" lon="-0.37131">
        <ele>47.72</ele>
        <time>2016-05-25T12:46:36Z</time>
      </trkpt>
      <trkpt lat="44.82235" lon="-0.37126">
        <ele>49.16</ele>
        <time>2016-05-25T12:46:54Z</time>
      </trkpt>
      <trkpt lat="44.8222" lon="-0.37126">
        <ele>52.05</ele>
        <time>2016-05-25T12:47:06Z</time>
      </trkpt>
      <trkpt lat="44.82218" lon="-0.37126">
        <ele>49.16</ele>
        <time>2016-05-25T12:47:07Z</time>
      </trkpt>
      <trkpt lat="44.82215" lon="-0.37126">
        <ele>53.97</ele>
        <time>2016-05-25T12:47:13Z</time>
      </trkpt>
      <trkpt lat="44.82214" lon="-0.37126">
        <ele>51.09</ele>
        <time>2016-05-25T12:47:14Z</time>
      </trkpt>
      <trkpt lat="44.82212" lon="-0.37125">
        <ele>53.97</ele>
        <time>2016-05-25T12:47:17Z</time>
      </trkpt>
      <trkpt lat="44.82191" lon="-0.37127">
        <ele>56.86</ele>
        <time>2016-05-25T12:47:37Z</time>
      </trkpt>
      <trkpt lat="44.82191" lon="-0.37128">
        <ele>53.97</ele>
        <time>2016-05-25T12:47:38Z</time>
      </trkpt>
      <trkpt lat="44.82186" lon="-0.37127">
        <ele>55.89</ele>
        <time>2016-05-25T12:47:43Z</time>
      </trkpt>
      <trkpt lat="44.8216" lon="-0.37128">
        <ele>59.26</ele>
        <time>2016-05-25T12:48:01Z</time>
      </trkpt>
      <trkpt lat="44.82146" lon="-0.37122">
        <ele>60.22</ele>
        <time>2016-05-25T12:48:14Z</time>
      </trkpt>
      <trkpt lat="44.82124" lon="-0.37124">
        <ele>62.62</ele>
        <time>2016-05-25T12:48:36Z</time>
      </trkpt>
      <trkpt lat="44.82122" lon="-0.37124">
        <ele>64.55</ele>
        <time>2016-05-25T12:48:40Z</time>
      </trkpt>
      <trkpt lat="44.82122" lon="-0.37119">
        <ele>64.07</ele>
        <time>2016-05-25T12:48:45Z</time>
      </trkpt>
      <trkpt lat="44.82121" lon="-0.37113">
        <ele>63.58</ele>
        <time>2016-05-25T12:49:01Z</time>
      </trkpt>
      <trkpt lat="44.82121" lon="-0.37113">
        <ele>66.95</ele>
        <time>2016-05-25T12:49:02Z</time>
      </trkpt>
      <trkpt lat="44.82122" lon="-0.37112">
        <ele>63.1</ele>
        <time>2016-05-25T12:49:09Z</time>
      </trkpt>
      <trkpt lat="44.82122" lon="-0.37111">
        <ele>68.39</ele>
        <time>2016-05-25T12:49:10Z</time>
      </trkpt>
      <trkpt lat="44.821" lon="-0.37107">
        <ele>72.24</ele>
        <time>2016-05-25T12:49:26Z</time>
      </trkpt>
      <trkpt lat="44.82093" lon="-0.37103">
        <ele>67.43</ele>
        <time>2016-05-25T12:49:29Z</time>
      </trkpt>
      <trkpt lat="44.82091" lon="-0.37102">
        <ele>71.76</ele>
        <time>2016-05-25T12:49:30Z</time>
      </trkpt>
      <trkpt lat="44.82072" lon="-0.37073">
        <ele>72.72</ele>
        <time>2016-05-25T12:49:46Z</time>
      </trkpt>
      <trkpt lat="44.82057" lon="-0.37068">
        <ele>73.68</ele>
        <time>2016-05-25T12:49:57Z</time>
      </trkpt>
      <trkpt lat="44.82035" lon="-0.37066">
        <ele>73.2</ele>
        <time>2016-05-25T12:50:16Z</time>
      </trkpt>
      <trkpt lat="44.82033" lon="-0.37067">
        <ele>74.64</ele>
        <time>2016-05-25T12:50:19Z</time>
      </trkpt>
      <trkpt lat="44.82011" lon="-0.37073">
        <ele>74.64</ele>
        <time>2016-05-25T12:50:37Z</time>
      </trkpt>
      <trkpt lat="44.81996" lon="-0.37086">
        <ele>75.6</ele>
        <time>2016-05-25T12:50:54Z</time>
      </trkpt>
      <trkpt lat="44.81974" lon="-0.37095">
        <ele>76.08</ele>
        <time>2016-05-25T12:51:13Z</time>
      </trkpt>
      <trkpt lat="44.81962" lon="-0.37097">
        <ele>76.56</ele>
        <time>2016-05-25T12:51:23Z</time>
      </trkpt>
      <trkpt lat="44.81959" lon="-0.37097">
        <ele>75.12</ele>
        <time>2016-05-25T12:51:25Z</time>
      </trkpt>
      <trkpt lat="44.81955" lon="-0.37098">
        <ele>76.56</ele>
        <time>2016-05-25T12:51:29Z</time>
      </trkpt>
      <trkpt lat="44.81951" lon="-0.37099">
        <ele>75.12</ele>
        <time>2016-05-25T12:51:33Z</time>
      </trkpt>
      <trkpt lat="44.81938" lon="-0.37103">
        <ele>76.56</ele>
        <time>2016-05-25T12:51:45Z</time>
      </trkpt>
      <trkpt lat="44.81919" lon="-0.37108">
        <ele>77.04</ele>
        <time>2016-05-25T12:52:01Z</time>
      </trkpt>
      <trkpt lat="44.81909" lon="-0.3711">
        <ele>75.6</ele>
        <time>2016-05-25T12:52:09Z</time>
      </trkpt>
      <trkpt lat="44.81882" lon="-0.37115">
        <ele>78</ele>
        <time>2016-05-25T12:52:28Z</time>
      </trkpt>
      <trkpt lat="44.81858" lon="-0.37122">
        <ele>78.48</ele>
        <time>2016-05-25T12:52:47Z</time>
      </trkpt>
      <trkpt lat="44.81835" lon="-0.3713">
        <ele>79.45</ele>
        <time>2016-05-25T12:53:06Z</time>
      </trkpt>
      <trkpt lat="44.81833" lon="-0.37131">
        <ele>79.45</ele>
        <time>2016-05-25T12:53:09Z</time>
      </trkpt>
      <trkpt lat="44.81821" lon="-0.37136">
        <ele>79.45</ele>
        <time>2016-05-25T12:53:26Z</time>
      </trkpt>
      <trkpt lat="44.81821" lon="-0.3713">
        <ele>79.45</ele>
        <time>2016-05-25T12:53:43Z</time>
      </trkpt>
      <trkpt lat="44.81811" lon="-0.37123">
        <ele>78.97</ele>
        <time>2016-05-25T12:53:53Z</time>
      </trkpt>
      <trkpt lat="44.81807" lon="-0.3712">
        <ele>80.41</ele>
        <time>2016-05-25T12:53:56Z</time>
      </trkpt>
      <trkpt lat="44.81809" lon="-0.37117">
        <ele>78.97</ele>
        <time>2016-05-25T12:54:06Z</time>
      </trkpt>
      <trkpt lat="44.81805" lon="-0.37114">
        <ele>79.93</ele>
        <time>2016-05-25T12:54:10Z</time>
      </trkpt>
      <trkpt lat="44.81789" lon="-0.371">
        <ele>79.93</ele>
        <time>2016-05-25T12:54:24Z</time>
      </trkpt>
      <trkpt lat="44.81773" lon="-0.37081">
        <ele>80.41</ele>
        <time>2016-05-25T12:54:41Z</time>
      </trkpt>
      <trkpt lat="44.81761" lon="-0.37071">
        <ele>78.97</ele>
        <time>2016-05-25T12:54:52Z</time>
      </trkpt>
      <trkpt lat="44.81746" lon="-0.37053">
        <ele>78.97</ele>
        <time>2016-05-25T12:55:08Z</time>
      </trkpt>
      <trkpt lat="44.81726" lon="-0.37038">
        <ele>79.45</ele>
        <time>2016-05-25T12:55:25Z</time>
      </trkpt>
      <trkpt lat="44.81716" lon="-0.3703">
        <ele>78</ele>
        <time>2016-05-25T12:55:33Z</time>
      </trkpt>
      <trkpt lat="44.81711" lon="-0.37024">
        <ele>78.48</ele>
        <time>2016-05-25T12:55:39Z</time>
      </trkpt>
      <trkpt lat="44.81691" lon="-0.37014">
        <ele>77.52</ele>
        <time>2016-05-25T12:55:56Z</time>
      </trkpt>
      <trkpt lat="44.81675" lon="-0.37">
        <ele>77.04</ele>
        <time>2016-05-25T12:56:14Z</time>
      </trkpt>
      <trkpt lat="44.81659" lon="-0.3699">
        <ele>75.6</ele>
        <time>2016-05-25T12:56:30Z</time>
      </trkpt>
      <trkpt lat="44.81644" lon="-0.36976">
        <ele>73.68</ele>
        <time>2016-05-25T12:56:46Z</time>
      </trkpt>
      <trkpt lat="44.81634" lon="-0.36969">
        <ele>71.76</ele>
        <time>2016-05-25T12:56:58Z</time>
      </trkpt>
      <trkpt lat="44.81632" lon="-0.36968">
        <ele>71.76</ele>
        <time>2016-05-25T12:57:00Z</time>
      </trkpt>
      <trkpt lat="44.81619" lon="-0.36959">
        <ele>69.83</ele>
        <time>2016-05-25T12:57:11Z</time>
      </trkpt>
      <trkpt lat="44.81603" lon="-0.36944">
        <ele>67.43</ele>
        <time>2016-05-25T12:57:25Z</time>
      </trkpt>
      <trkpt lat="44.81595" lon="-0.36935">
        <ele>66.47</ele>
        <time>2016-05-25T12:57:31Z</time>
      </trkpt>
      <trkpt lat="44.81583" lon="-0.36925">
        <ele>64.07</ele>
        <time>2016-05-25T12:57:42Z</time>
      </trkpt>
      <trkpt lat="44.81573" lon="-0.36913">
        <ele>64.07</ele>
        <time>2016-05-25T12:57:53Z</time>
      </trkpt>
      <trkpt lat="44.81569" lon="-0.36905">
        <ele>62.14</ele>
        <time>2016-05-25T12:57:58Z</time>
      </trkpt>
      <trkpt lat="44.81562" lon="-0.36873">
        <ele>60.7</ele>
        <time>2016-05-25T12:58:16Z</time>
      </trkpt>
      <trkpt lat="44.81552" lon="-0.36843">
        <ele>60.22</ele>
        <time>2016-05-25T12:58:33Z</time>
      </trkpt>
      <trkpt lat="44.81549" lon="-0.36829">
        <ele>58.3</ele>
        <time>2016-05-25T12:58:42Z</time>
      </trkpt>
      <trkpt lat="44.81548" lon="-0.36817">
        <ele>57.34</ele>
        <time>2016-05-25T12:58:50Z</time>
      </trkpt>
      <trkpt lat="44.81547" lon="-0.36814">
        <ele>57.34</ele>
        <time>2016-05-25T12:58:52Z</time>
      </trkpt>
      <trkpt lat="44.81537" lon="-0.36783">
        <ele>54.45</ele>
        <time>2016-05-25T12:59:11Z</time>
      </trkpt>
      <trkpt lat="44.8153" lon="-0.36758">
        <ele>53.97</ele>
        <time>2016-05-25T12:59:27Z</time>
      </trkpt>
      <trkpt lat="44.81521" lon="-0.36736">
        <ele>52.05</ele>
        <time>2016-05-25T12:59:44Z</time>
      </trkpt>
      <trkpt lat="44.81506" lon="-0.36715">
        <ele>50.13</ele>
        <time>2016-05-25T13:00:01Z</time>
      </trkpt>
      <trkpt lat="44.81504" lon="-0.36713">
        <ele>49.16</ele>
        <time>2016-05-25T13:00:04Z</time>
      </trkpt>
      <trkpt lat="44.81504" lon="-0.36712">
        <ele>49.16</ele>
        <time>2016-05-25T13:00:05Z</time>
      </trkpt>
      <trkpt lat="44.81493" lon="-0.36686">
        <ele>47.24</ele>
        <time>2016-05-25T13:00:21Z</time>
      </trkpt>
      <trkpt lat="44.81486" lon="-0.36663">
        <ele>45.32</ele>
        <time>2016-05-25T13:00:37Z</time>
      </trkpt>
      <trkpt lat="44.81474" lon="-0.36635">
        <ele>43.88</ele>
        <time>2016-05-25T13:00:55Z</time>
      </trkpt>
      <trkpt lat="44.81468" lon="-0.366">
        <ele>41.95</ele>
        <time>2016-05-25T13:01:13Z</time>
      </trkpt>
      <trkpt lat="44.81458" lon="-0.36571">
        <ele>40.99</ele>
        <time>2016-05-25T13:01:32Z</time>
      </trkpt>
      <trkpt lat="44.81454" lon="-0.36548">
        <ele>40.03</ele>
        <time>2016-05-25T13:01:47Z</time>
      </trkpt>
      <trkpt lat="44.81446" lon="-0.36532">
        <ele>38.59</ele>
        <time>2016-05-25T13:01:59Z</time>
      </trkpt>
      <trkpt lat="44.81438" lon="-0.36533">
        <ele>37.63</ele>
        <time>2016-05-25T13:02:16Z</time>
      </trkpt>
      <trkpt lat="44.8143" lon="-0.36547">
        <ele>37.15</ele>
        <time>2016-05-25T13:02:27Z</time>
      </trkpt>
      <trkpt lat="44.81413" lon="-0.36574">
        <ele>38.11</ele>
        <time>2016-05-25T13:02:45Z</time>
      </trkpt>
      <trkpt lat="44.81399" lon="-0.36595">
        <ele>37.15</ele>
        <time>2016-05-25T13:03:01Z</time>
      </trkpt>
      <trkpt lat="44.81373" lon="-0.36609">
        <ele>38.11</ele>
        <time>2016-05-25T13:03:23Z</time>
      </trkpt>
      <trkpt lat="44.81348" lon="-0.36619">
        <ele>38.59</ele>
        <time>2016-05-25T13:03:44Z</time>
      </trkpt>
      <trkpt lat="44.81343" lon="-0.3662">
        <ele>38.59</ele>
        <time>2016-05-25T13:03:49Z</time>
      </trkpt>
      <trkpt lat="44.81338" lon="-0.36621">
        <ele>37.15</ele>
        <time>2016-05-25T13:03:52Z</time>
      </trkpt>
      <trkpt lat="44.81319" lon="-0.36629">
        <ele>37.15</ele>
        <time>2016-05-25T13:04:10Z</time>
      </trkpt>
      <trkpt lat="44.81301" lon="-0.36635">
        <ele>38.59</ele>
        <time>2016-05-25T13:04:27Z</time>
      </trkpt>
      <trkpt lat="44.81274" lon="-0.36643">
        <ele>37.15</ele>
        <time>2016-05-25T13:04:50Z</time>
      </trkpt>
      <trkpt lat="44.81267" lon="-0.36646">
        <ele>38.59</ele>
        <time>2016-05-25T13:04:55Z</time>
      </trkpt>
      <trkpt lat="44.81245" lon="-0.36664">
        <ele>37.63</ele>
        <time>2016-05-25T13:05:17Z</time>
      </trkpt>
      <trkpt lat="44.81231" lon="-0.36692">
        <ele>37.63</ele>
        <time>2016-05-25T13:05:35Z</time>
      </trkpt>
      <trkpt lat="44.81222" lon="-0.36711">
        <ele>36.67</ele>
        <time>2016-05-25T13:05:47Z</time>
      </trkpt>
      <trkpt lat="44.81215" lon="-0.36729">
        <ele>36.67</ele>
        <time>2016-05-25T13:06:00Z</time>
      </trkpt>
      <trkpt lat="44.81204" lon="-0.36755">
        <ele>36.19</ele>
        <time>2016-05-25T13:06:18Z</time>
      </trkpt>
      <trkpt lat="44.81196" lon="-0.36777">
        <ele>36.19</ele>
        <time>2016-05-25T13:06:33Z</time>
      </trkpt>
      <trkpt lat="44.81185" lon="-0.36808">
        <ele>36.19</ele>
        <time>2016-05-25T13:06:52Z</time>
      </trkpt>
      <trkpt lat="44.81174" lon="-0.36836">
        <ele>36.19</ele>
        <time>2016-05-25T13:07:11Z</time>
      </trkpt>
      <trkpt lat="44.81166" lon="-0.3685">
        <ele>36.67</ele>
        <time>2016-05-25T13:07:20Z</time>
      </trkpt>
      <trkpt lat="44.81141" lon="-0.36882">
        <ele>36.19</ele>
        <time>2016-05-25T13:07:44Z</time>
      </trkpt>
      <trkpt lat="44.81123" lon="-0.36901">
        <ele>35.23</ele>
        <time>2016-05-25T13:08:00Z</time>
      </trkpt>
      <trkpt lat="44.811" lon="-0.3692">
        <ele>35.71</ele>
        <time>2016-05-25T13:08:21Z</time>
      </trkpt>
      <trkpt lat="44.81078" lon="-0.36933">
        <ele>34.74</ele>
        <time>2016-05-25T13:08:38Z</time>
      </trkpt>
      <trkpt lat="44.81074" lon="-0.36935">
        <ele>35.71</ele>
        <time>2016-05-25T13:08:41Z</time>
      </trkpt>
      <trkpt lat="44.81059" lon="-0.36939">
        <ele>35.71</ele>
        <time>2016-05-25T13:08:56Z</time>
      </trkpt>
      <trkpt lat="44.81045" lon="-0.36943">
        <ele>34.74</ele>
        <time>2016-05-25T13:09:13Z</time>
      </trkpt>
      <trkpt lat="44.81026" lon="-0.36948">
        <ele>36.19</ele>
        <time>2016-05-25T13:09:24Z</time>
      </trkpt>
      <trkpt lat="44.81013" lon="-0.36956">
        <ele>34.74</ele>
        <time>2016-05-25T13:09:35Z</time>
      </trkpt>
      <trkpt lat="44.8101" lon="-0.36957">
        <ele>36.19</ele>
        <time>2016-05-25T13:09:37Z</time>
      </trkpt>
      <trkpt lat="44.81006" lon="-0.36957">
        <ele>34.74</ele>
        <time>2016-05-25T13:09:40Z</time>
      </trkpt>
      <trkpt lat="44.81003" lon="-0.36958">
        <ele>36.19</ele>
        <time>2016-05-25T13:09:42Z</time>
      </trkpt>
      <trkpt lat="44.80987" lon="-0.36963">
        <ele>34.74</ele>
        <time>2016-05-25T13:09:55Z</time>
      </trkpt>
      <trkpt lat="44.8098" lon="-0.36966">
        <ele>36.19</ele>
        <time>2016-05-25T13:10:00Z</time>
      </trkpt>
      <trkpt lat="44.80977" lon="-0.36967">
        <ele>36.19</ele>
        <time>2016-05-25T13:10:02Z</time>
      </trkpt>
      <trkpt lat="44.80967" lon="-0.3697">
        <ele>35.71</ele>
        <time>2016-05-25T13:10:09Z</time>
      </trkpt>
      <trkpt lat="44.80936" lon="-0.36973">
        <ele>35.71</ele>
        <time>2016-05-25T13:10:30Z</time>
      </trkpt>
      <trkpt lat="44.80922" lon="-0.36978">
        <ele>34.74</ele>
        <time>2016-05-25T13:10:42Z</time>
      </trkpt>
      <trkpt lat="44.8092" lon="-0.36978">
        <ele>36.19</ele>
        <time>2016-05-25T13:10:44Z</time>
      </trkpt>
      <trkpt lat="44.80898" lon="-0.36981">
        <ele>35.71</ele>
        <time>2016-05-25T13:11:03Z</time>
      </trkpt>
      <trkpt lat="44.80895" lon="-0.36983">
        <ele>34.26</ele>
        <time>2016-05-25T13:11:06Z</time>
      </trkpt>
      <trkpt lat="44.80892" lon="-0.36983">
        <ele>36.19</ele>
        <time>2016-05-25T13:11:08Z</time>
      </trkpt>
      <trkpt lat="44.80867" lon="-0.36987">
        <ele>36.19</ele>
        <time>2016-05-25T13:11:27Z</time>
      </trkpt>
      <trkpt lat="44.80855" lon="-0.36991">
        <ele>34.74</ele>
        <time>2016-05-25T13:11:36Z</time>
      </trkpt>
      <trkpt lat="44.80835" lon="-0.36993">
        <ele>36.19</ele>
        <time>2016-05-25T13:11:52Z</time>
      </trkpt>
      <trkpt lat="44.8082" lon="-0.36997">
        <ele>36.19</ele>
        <time>2016-05-25T13:12:05Z</time>
      </trkpt>
      <trkpt lat="44.80805" lon="-0.37003">
        <ele>36.19</ele>
        <time>2016-05-25T13:12:24Z</time>
      </trkpt>
      <trkpt lat="44.80771" lon="-0.37012">
        <ele>37.15</ele>
        <time>2016-05-25T13:12:47Z</time>
      </trkpt>
      <trkpt lat="44.8075" lon="-0.37028">
        <ele>39.55</ele>
        <time>2016-05-25T13:13:11Z</time>
      </trkpt>
      <trkpt lat="44.80733" lon="-0.37032">
        <ele>39.55</ele>
        <time>2016-05-25T13:13:21Z</time>
      </trkpt>
      <trkpt lat="44.80706" lon="-0.37041">
        <ele>40.99</ele>
        <time>2016-05-25T13:13:41Z</time>
      </trkpt>
      <trkpt lat="44.80689" lon="-0.37059">
        <ele>41.47</ele>
        <time>2016-05-25T13:13:58Z</time>
      </trkpt>
      <trkpt lat="44.80668" lon="-0.37077">
        <ele>42.44</ele>
        <time>2016-05-25T13:14:16Z</time>
      </trkpt>
      <trkpt lat="44.80664" lon="-0.37082">
        <ele>42.92</ele>
        <time>2016-05-25T13:14:21Z</time>
      </trkpt>
      <trkpt lat="44.80652" lon="-0.37097">
        <ele>43.88</ele>
        <time>2016-05-25T13:14:33Z</time>
      </trkpt>
      <trkpt lat="44.80648" lon="-0.37102">
        <ele>44.36</ele>
        <time>2016-05-25T13:14:38Z</time>
      </trkpt>
      <trkpt lat="44.80633" lon="-0.37131">
        <ele>45.32</ele>
        <time>2016-05-25T13:14:57Z</time>
      </trkpt>
      <trkpt lat="44.80622" lon="-0.3715">
        <ele>46.76</ele>
        <time>2016-05-25T13:15:13Z</time>
      </trkpt>
      <trkpt lat="44.80622" lon="-0.37151">
        <ele>46.76</ele>
        <time>2016-05-25T13:15:14Z</time>
      </trkpt>
      <trkpt lat="44.8062" lon="-0.37153">
        <ele>46.76</ele>
        <time>2016-05-25T13:15:16Z</time>
      </trkpt>
      <trkpt lat="44.80601" lon="-0.37185">
        <ele>48.2</ele>
        <time>2016-05-25T13:15:37Z</time>
      </trkpt>
      <trkpt lat="44.8059" lon="-0.37209">
        <ele>48.68</ele>
        <time>2016-05-25T13:15:54Z</time>
      </trkpt>
      <trkpt lat="44.80573" lon="-0.37232">
        <ele>49.65</ele>
        <time>2016-05-25T13:16:11Z</time>
      </trkpt>
      <trkpt lat="44.80554" lon="-0.37221">
        <ele>51.09</ele>
        <time>2016-05-25T13:16:32Z</time>
      </trkpt>
      <trkpt lat="44.80533" lon="-0.37208">
        <ele>51.57</ele>
        <time>2016-05-25T13:16:49Z</time>
      </trkpt>
      <trkpt lat="44.80509" lon="-0.37203">
        <ele>50.13</ele>
        <time>2016-05-25T13:17:10Z</time>
      </trkpt>
      <trkpt lat="44.80488" lon="-0.37195">
        <ele>49.16</ele>
        <time>2016-05-25T13:17:32Z</time>
      </trkpt>
      <trkpt lat="44.80468" lon="-0.37186">
        <ele>48.68</ele>
        <time>2016-05-25T13:17:51Z</time>
      </trkpt>
      <trkpt lat="44.80471" lon="-0.37153">
        <ele>48.2</ele>
        <time>2016-05-25T13:18:10Z</time>
      </trkpt>
      <trkpt lat="44.80464" lon="-0.37136">
        <ele>46.76</ele>
        <time>2016-05-25T13:18:21Z</time>
      </trkpt>
      <trkpt lat="44.80459" lon="-0.37113">
        <ele>43.88</ele>
        <time>2016-05-25T13:18:38Z</time>
      </trkpt>
      <trkpt lat="44.8045" lon="-0.3708">
        <ele>40.99</ele>
        <time>2016-05-25T13:19:02Z</time>
      </trkpt>
      <trkpt lat="44.80436" lon="-0.37065">
        <ele>38.59</ele>
        <time>2016-05-25T13:19:22Z</time>
      </trkpt>
      <trkpt lat="44.80408" lon="-0.37043">
        <ele>37.63</ele>
        <time>2016-05-25T13:19:47Z</time>
      </trkpt>
      <trkpt lat="44.80396" lon="-0.37039">
        <ele>37.15</ele>
        <time>2016-05-25T13:20:08Z</time>
      </trkpt>
      <trkpt lat="44.80399" lon="-0.37037">
        <ele>37.63</ele>
        <time>2016-05-25T13:20:30Z</time>
      </trkpt>
      <trkpt lat="44.80398" lon="-0.37031">
        <ele>37.63</ele>
        <time>2016-05-25T13:20:55Z</time>
      </trkpt>
      <trkpt lat="44.80397" lon="-0.37038">
        <ele>37.63</ele>
        <time>2016-05-25T13:21:24Z</time>
      </trkpt>
      <trkpt lat="44.80399" lon="-0.37039">
        <ele>38.11</ele>
        <time>2016-05-25T13:21:51Z</time>
      </trkpt>
      <trkpt lat="44.80394" lon="-0.37045">
        <ele>38.11</ele>
        <time>2016-05-25T13:22:14Z</time>
      </trkpt>
      <trkpt lat="44.80391" lon="-0.37035">
        <ele>38.59</ele>
        <time>2016-05-25T13:22:42Z</time>
      </trkpt>
      <trkpt lat="44.80386" lon="-0.37042">
        <ele>40.03</ele>
        <time>2016-05-25T13:22:53Z</time>
      </trkpt>
      <trkpt lat="44.80373" lon="-0.37054">
        <ele>41.95</ele>
        <time>2016-05-25T13:23:05Z</time>
      </trkpt>
      <trkpt lat="44.80362" lon="-0.37062">
        <ele>43.88</ele>
        <time>2016-05-25T13:23:17Z</time>
      </trkpt>
      <trkpt lat="44.80353" lon="-0.37059">
        <ele>44.36</ele>
        <time>2016-05-25T13:23:24Z</time>
      </trkpt>
      <trkpt lat="44.80346" lon="-0.37054">
        <ele>43.4</ele>
        <time>2016-05-25T13:23:33Z</time>
      </trkpt>
      <trkpt lat="44.80344" lon="-0.37053">
        <ele>47.24</ele>
        <time>2016-05-25T13:23:35Z</time>
      </trkpt>
      <trkpt lat="44.80342" lon="-0.37052">
        <ele>45.32</ele>
        <time>2016-05-25T13:23:36Z</time>
      </trkpt>
      <trkpt lat="44.80333" lon="-0.37052">
        <ele>47.24</ele>
        <time>2016-05-25T13:23:44Z</time>
      </trkpt>
      <trkpt lat="44.80326" lon="-0.37053">
        <ele>47.72</ele>
        <time>2016-05-25T13:23:52Z</time>
      </trkpt>
      <trkpt lat="44.80321" lon="-0.37051">
        <ele>47.72</ele>
        <time>2016-05-25T13:23:59Z</time>
      </trkpt>
      <trkpt lat="44.80307" lon="-0.37049">
        <ele>52.05</ele>
        <time>2016-05-25T13:24:14Z</time>
      </trkpt>
      <trkpt lat="44.80307" lon="-0.37049">
        <ele>48.68</ele>
        <time>2016-05-25T13:24:15Z</time>
      </trkpt>
      <trkpt lat="44.80307" lon="-0.37052">
        <ele>50.13</ele>
        <time>2016-05-25T13:24:18Z</time>
      </trkpt>
      <trkpt lat="44.80307" lon="-0.37054">
        <ele>48.2</ele>
        <time>2016-05-25T13:24:20Z</time>
      </trkpt>
      <trkpt lat="44.80304" lon="-0.37056">
        <ele>49.65</ele>
        <time>2016-05-25T13:24:26Z</time>
      </trkpt>
      <trkpt lat="44.80303" lon="-0.37056">
        <ele>48.2</ele>
        <time>2016-05-25T13:24:28Z</time>
      </trkpt>
      <trkpt lat="44.80301" lon="-0.37056">
        <ele>49.65</ele>
        <time>2016-05-25T13:24:30Z</time>
      </trkpt>
      <trkpt lat="44.80287" lon="-0.3704">
        <ele>49.16</ele>
        <time>2016-05-25T13:24:49Z</time>
      </trkpt>
      <trkpt lat="44.80284" lon="-0.37024">
        <ele>51.09</ele>
        <time>2016-05-25T13:24:58Z</time>
      </trkpt>
      <trkpt lat="44.80264" lon="-0.37029">
        <ele>51.57</ele>
        <time>2016-05-25T13:25:18Z</time>
      </trkpt>
      <trkpt lat="44.80248" lon="-0.37049">
        <ele>53.49</ele>
        <time>2016-05-25T13:25:38Z</time>
      </trkpt>
      <trkpt lat="44.80247" lon="-0.37049">
        <ele>53.49</ele>
        <time>2016-05-25T13:25:39Z</time>
      </trkpt>
      <trkpt lat="44.80225" lon="-0.37042">
        <ele>53.01</ele>
        <time>2016-05-25T13:26:01Z</time>
      </trkpt>
      <trkpt lat="44.80223" lon="-0.37043">
        <ele>54.93</ele>
        <time>2016-05-25T13:26:04Z</time>
      </trkpt>
      <trkpt lat="44.80215" lon="-0.37046">
        <ele>53.49</ele>
        <time>2016-05-25T13:26:11Z</time>
      </trkpt>
      <trkpt lat="44.80212" lon="-0.37045">
        <ele>54.93</ele>
        <time>2016-05-25T13:26:14Z</time>
      </trkpt>
      <trkpt lat="44.80192" lon="-0.37018">
        <ele>55.41</ele>
        <time>2016-05-25T13:26:34Z</time>
      </trkpt>
      <trkpt lat="44.80176" lon="-0.3701">
        <ele>55.89</ele>
        <time>2016-05-25T13:26:52Z</time>
      </trkpt>
      <trkpt lat="44.80172" lon="-0.3701">
        <ele>57.34</ele>
        <time>2016-05-25T13:26:55Z</time>
      </trkpt>
      <trkpt lat="44.80151" lon="-0.37011">
        <ele>56.86</ele>
        <time>2016-05-25T13:27:13Z</time>
      </trkpt>
      <trkpt lat="44.80148" lon="-0.3701">
        <ele>58.3</ele>
        <time>2016-05-25T13:27:16Z</time>
      </trkpt>
      <trkpt lat="44.80141" lon="-0.37011">
        <ele>58.78</ele>
        <time>2016-05-25T13:27:21Z</time>
      </trkpt>
      <trkpt lat="44.80118" lon="-0.37009">
        <ele>60.22</ele>
        <time>2016-05-25T13:27:36Z</time>
      </trkpt>
      <trkpt lat="44.801" lon="-0.37011">
        <ele>59.74</ele>
        <time>2016-05-25T13:27:54Z</time>
      </trkpt>
      <trkpt lat="44.80098" lon="-0.3701">
        <ele>61.66</ele>
        <time>2016-05-25T13:27:56Z</time>
      </trkpt>
      <trkpt lat="44.80072" lon="-0.37011">
        <ele>62.14</ele>
        <time>2016-05-25T13:28:17Z</time>
      </trkpt>
      <trkpt lat="44.8005" lon="-0.37003">
        <ele>62.14</ele>
        <time>2016-05-25T13:28:34Z</time>
      </trkpt>
      <trkpt lat="44.80045" lon="-0.37">
        <ele>64.07</ele>
        <time>2016-05-25T13:28:39Z</time>
      </trkpt>
      <trkpt lat="44.80033" lon="-0.36997">
        <ele>65.03</ele>
        <time>2016-05-25T13:28:48Z</time>
      </trkpt>
      <trkpt lat="44.80017" lon="-0.36997">
        <ele>65.51</ele>
        <time>2016-05-25T13:29:01Z</time>
      </trkpt>
      <trkpt lat="44.8001" lon="-0.36997">
        <ele>65.03</ele>
        <time>2016-05-25T13:29:06Z</time>
      </trkpt>
      <trkpt lat="44.80005" lon="-0.36995">
        <ele>67.91</ele>
        <time>2016-05-25T13:29:11Z</time>
      </trkpt>
      <trkpt lat="44.80004" lon="-0.36994">
        <ele>66.95</ele>
        <time>2016-05-25T13:29:12Z</time>
      </trkpt>
      <trkpt lat="44.79996" lon="-0.36992">
        <ele>67.91</ele>
        <time>2016-05-25T13:29:17Z</time>
      </trkpt>
      <trkpt lat="44.79985" lon="-0.36987">
        <ele>68.87</ele>
        <time>2016-05-25T13:29:28Z</time>
      </trkpt>
      <trkpt lat="44.79972" lon="-0.36987">
        <ele>71.27</ele>
        <time>2016-05-25T13:29:40Z</time>
      </trkpt>
      <trkpt lat="44.79968" lon="-0.36986">
        <ele>67.91</ele>
        <time>2016-05-25T13:29:43Z</time>
      </trkpt>
      <trkpt lat="44.79967" lon="-0.36986">
        <ele>71.27</ele>
        <time>2016-05-25T13:29:44Z</time>
      </trkpt>
      <trkpt lat="44.79955" lon="-0.36984">
        <ele>73.68</ele>
        <time>2016-05-25T13:29:55Z</time>
      </trkpt>
      <trkpt lat="44.79951" lon="-0.36986">
        <ele>72.24</ele>
        <time>2016-05-25T13:29:59Z</time>
      </trkpt>
      <trkpt lat="44.79947" lon="-0.36988">
        <ele>72.72</ele>
        <time>2016-05-25T13:30:03Z</time>
      </trkpt>
      <trkpt lat="44.79941" lon="-0.36995">
        <ele>74.64</ele>
        <time>2016-05-25T13:30:10Z</time>
      </trkpt>
      <trkpt lat="44.7992" lon="-0.37015">
        <ele>74.16</ele>
        <time>2016-05-25T13:30:32Z</time>
      </trkpt>
      <trkpt lat="44.79904" lon="-0.37033">
        <ele>74.16</ele>
        <time>2016-05-25T13:30:48Z</time>
      </trkpt>
      <trkpt lat="44.79894" lon="-0.37039">
        <ele>72.72</ele>
        <time>2016-05-25T13:30:57Z</time>
      </trkpt>
      <trkpt lat="44.79876" lon="-0.37051">
        <ele>72.24</ele>
        <time>2016-05-25T13:31:15Z</time>
      </trkpt>
      <trkpt lat="44.79868" lon="-0.37054">
        <ele>75.6</ele>
        <time>2016-05-25T13:31:21Z</time>
      </trkpt>
      <trkpt lat="44.79862" lon="-0.37074">
        <ele>74.16</ele>
        <time>2016-05-25T13:31:38Z</time>
      </trkpt>
      <trkpt lat="44.79848" lon="-0.37098">
        <ele>73.2</ele>
        <time>2016-05-25T13:31:59Z</time>
      </trkpt>
      <trkpt lat="44.79842" lon="-0.37108">
        <ele>75.12</ele>
        <time>2016-05-25T13:32:07Z</time>
      </trkpt>
      <trkpt lat="44.79837" lon="-0.37116">
        <ele>75.12</ele>
        <time>2016-05-25T13:32:13Z</time>
      </trkpt>
      <trkpt lat="44.79834" lon="-0.37123">
        <ele>73.68</ele>
        <time>2016-05-25T13:32:17Z</time>
      </trkpt>
      <trkpt lat="44.79832" lon="-0.37125">
        <ele>75.12</ele>
        <time>2016-05-25T13:32:19Z</time>
      </trkpt>
      <trkpt lat="44.7983" lon="-0.37129">
        <ele>73.68</ele>
        <time>2016-05-25T13:32:22Z</time>
      </trkpt>
      <trkpt lat="44.79826" lon="-0.37135">
        <ele>75.6</ele>
        <time>2016-05-25T13:32:27Z</time>
      </trkpt>
      <trkpt lat="44.79808" lon="-0.37154">
        <ele>75.6</ele>
        <time>2016-05-25T13:32:44Z</time>
      </trkpt>
      <trkpt lat="44.79801" lon="-0.37161">
        <ele>76.56</ele>
        <time>2016-05-25T13:32:50Z</time>
      </trkpt>
      <trkpt lat="44.79794" lon="-0.37165">
        <ele>75.6</ele>
        <time>2016-05-25T13:32:56Z</time>
      </trkpt>
      <trkpt lat="44.7977" lon="-0.37173">
        <ele>77.52</ele>
        <time>2016-05-25T13:33:17Z</time>
      </trkpt>
      <trkpt lat="44.79763" lon="-0.37171">
        <ele>75.6</ele>
        <time>2016-05-25T13:33:23Z</time>
      </trkpt>
      <trkpt lat="44.79762" lon="-0.3717">
        <ele>79.45</ele>
        <time>2016-05-25T13:33:24Z</time>
      </trkpt>
      <trkpt lat="44.79762" lon="-0.37169">
        <ele>78</ele>
        <time>2016-05-25T13:33:25Z</time>
      </trkpt>
      <trkpt lat="44.79761" lon="-0.37165">
        <ele>79.45</ele>
        <time>2016-05-25T13:33:29Z</time>
      </trkpt>
      <trkpt lat="44.7976" lon="-0.37161">
        <ele>78.48</ele>
        <time>2016-05-25T13:33:32Z</time>
      </trkpt>
      <trkpt lat="44.79756" lon="-0.37156">
        <ele>79.93</ele>
        <time>2016-05-25T13:33:38Z</time>
      </trkpt>
      <trkpt lat="44.7975" lon="-0.37132">
        <ele>81.37</ele>
        <time>2016-05-25T13:33:57Z</time>
      </trkpt>
      <trkpt lat="44.79748" lon="-0.3712">
        <ele>82.33</ele>
        <time>2016-05-25T13:34:05Z</time>
      </trkpt>
      <trkpt lat="44.79744" lon="-0.37113">
        <ele>81.85</ele>
        <time>2016-05-25T13:34:10Z</time>
      </trkpt>
      <trkpt lat="44.79742" lon="-0.37108">
        <ele>83.29</ele>
        <time>2016-05-25T13:34:13Z</time>
      </trkpt>
      <trkpt lat="44.79741" lon="-0.37102">
        <ele>81.85</ele>
        <time>2016-05-25T13:34:16Z</time>
      </trkpt>
      <trkpt lat="44.79738" lon="-0.37093">
        <ele>83.29</ele>
        <time>2016-05-25T13:34:22Z</time>
      </trkpt>
      <trkpt lat="44.79729" lon="-0.37078">
        <ele>84.73</ele>
        <time>2016-05-25T13:34:34Z</time>
      </trkpt>
      <trkpt lat="44.79717" lon="-0.37042">
        <ele>84.73</ele>
        <time>2016-05-25T13:34:55Z</time>
      </trkpt>
      <trkpt lat="44.79708" lon="-0.37012">
        <ele>84.73</ele>
        <time>2016-05-25T13:35:14Z</time>
      </trkpt>
      <trkpt lat="44.79704" lon="-0.37">
        <ele>84.25</ele>
        <time>2016-05-25T13:35:30Z</time>
      </trkpt>
      <trkpt lat="44.79698" lon="-0.36992">
        <ele>84.73</ele>
        <time>2016-05-25T13:35:51Z</time>
      </trkpt>
      <trkpt lat="44.79694" lon="-0.36984">
        <ele>83.29</ele>
        <time>2016-05-25T13:35:58Z</time>
      </trkpt>
      <trkpt lat="44.79676" lon="-0.36971">
        <ele>83.29</ele>
        <time>2016-05-25T13:36:19Z</time>
      </trkpt>
      <trkpt lat="44.79655" lon="-0.36976">
        <ele>81.85</ele>
        <time>2016-05-25T13:36:38Z</time>
      </trkpt>
      <trkpt lat="44.7964" lon="-0.36975">
        <ele>82.33</ele>
        <time>2016-05-25T13:36:48Z</time>
      </trkpt>
      <trkpt lat="44.79621" lon="-0.36974">
        <ele>81.85</ele>
        <time>2016-05-25T13:37:05Z</time>
      </trkpt>
      <trkpt lat="44.79617" lon="-0.36976">
        <ele>80.41</ele>
        <time>2016-05-25T13:37:09Z</time>
      </trkpt>
      <trkpt lat="44.79602" lon="-0.36974">
        <ele>77.04</ele>
        <time>2016-05-25T13:37:24Z</time>
      </trkpt>
      <trkpt lat="44.79602" lon="-0.36974">
        <ele>77.04</ele>
        <time>2016-05-25T13:37:25Z</time>
      </trkpt>
      <trkpt lat="44.7959" lon="-0.36957">
        <ele>75.12</ele>
        <time>2016-05-25T13:37:46Z</time>
      </trkpt>
      <trkpt lat="44.79568" lon="-0.36935">
        <ele>71.76</ele>
        <time>2016-05-25T13:38:09Z</time>
      </trkpt>
      <trkpt lat="44.79555" lon="-0.36914">
        <ele>70.31</ele>
        <time>2016-05-25T13:38:26Z</time>
      </trkpt>
      <trkpt lat="44.79545" lon="-0.36887">
        <ele>67.91</ele>
        <time>2016-05-25T13:38:48Z</time>
      </trkpt>
      <trkpt lat="44.79541" lon="-0.36887">
        <ele>66.47</ele>
        <time>2016-05-25T13:38:52Z</time>
      </trkpt>
      <trkpt lat="44.79534" lon="-0.36885">
        <ele>65.99</ele>
        <time>2016-05-25T13:38:58Z</time>
      </trkpt>
      <trkpt lat="44.79529" lon="-0.36887">
        <ele>61.66</ele>
        <time>2016-05-25T13:39:03Z</time>
      </trkpt>
      <trkpt lat="44.79529" lon="-0.36887">
        <ele>68.39</ele>
        <time>2016-05-25T13:39:04Z</time>
      </trkpt>
      <trkpt lat="44.79526" lon="-0.36886">
        <ele>65.51</ele>
        <time>2016-05-25T13:39:09Z</time>
      </trkpt>
      <trkpt lat="44.79513" lon="-0.36877">
        <ele>65.03</ele>
        <time>2016-05-25T13:39:29Z</time>
      </trkpt>
      <trkpt lat="44.79494" lon="-0.36881">
        <ele>64.07</ele>
        <time>2016-05-25T13:39:53Z</time>
      </trkpt>
      <trkpt lat="44.79465" lon="-0.36887">
        <ele>64.55</ele>
        <time>2016-05-25T13:40:15Z</time>
      </trkpt>
      <trkpt lat="44.79462" lon="-0.36889">
        <ele>66.47</ele>
        <time>2016-05-25T13:40:20Z</time>
      </trkpt>
      <trkpt lat="44.7946" lon="-0.3689">
        <ele>64.55</ele>
        <time>2016-05-25T13:40:22Z</time>
      </trkpt>
      <trkpt lat="44.79449" lon="-0.36885">
        <ele>65.99</ele>
        <time>2016-05-25T13:40:29Z</time>
      </trkpt>
      <trkpt lat="44.79435" lon="-0.36865">
        <ele>64.07</ele>
        <time>2016-05-25T13:40:50Z</time>
      </trkpt>
      <trkpt lat="44.79434" lon="-0.36837">
        <ele>63.58</ele>
        <time>2016-05-25T13:41:10Z</time>
      </trkpt>
      <trkpt lat="44.79434" lon="-0.36836">
        <ele>61.66</ele>
        <time>2016-05-25T13:41:12Z</time>
      </trkpt>
      <trkpt lat="44.79424" lon="-0.36798">
        <ele>59.26</ele>
        <time>2016-05-25T13:41:34Z</time>
      </trkpt>
      <trkpt lat="44.79414" lon="-0.36782">
        <ele>59.74</ele>
        <time>2016-05-25T13:41:55Z</time>
      </trkpt>
      <trkpt lat="44.79412" lon="-0.36784">
        <ele>58.3</ele>
        <time>2016-05-25T13:41:58Z</time>
      </trkpt>
      <trkpt lat="44.79411" lon="-0.36785">
        <ele>59.74</ele>
        <time>2016-05-25T13:42:00Z</time>
      </trkpt>
      <trkpt lat="44.79408" lon="-0.36786">
        <ele>58.78</ele>
        <time>2016-05-25T13:42:03Z</time>
      </trkpt>
      <trkpt lat="44.79406" lon="-0.36787">
        <ele>60.22</ele>
        <time>2016-05-25T13:42:05Z</time>
      </trkpt>
      <trkpt lat="44.79388" lon="-0.36788">
        <ele>60.22</ele>
        <time>2016-05-25T13:42:23Z</time>
      </trkpt>
      <trkpt lat="44.79367" lon="-0.36787">
        <ele>60.7</ele>
        <time>2016-05-25T13:42:39Z</time>
      </trkpt>
      <trkpt lat="44.79346" lon="-0.36784">
        <ele>61.18</ele>
        <time>2016-05-25T13:42:56Z</time>
      </trkpt>
      <trkpt lat="44.79338" lon="-0.36786">
        <ele>59.74</ele>
        <time>2016-05-25T13:43:04Z</time>
      </trkpt>
      <trkpt lat="44.79319" lon="-0.36779">
        <ele>61.18</ele>
        <time>2016-05-25T13:43:20Z</time>
      </trkpt>
      <trkpt lat="44.79311" lon="-0.36763">
        <ele>61.18</ele>
        <time>2016-05-25T13:43:43Z</time>
      </trkpt>
      <trkpt lat="44.7931" lon="-0.36743">
        <ele>61.18</ele>
        <time>2016-05-25T13:43:50Z</time>
      </trkpt>
      <trkpt lat="44.79307" lon="-0.36728">
        <ele>61.18</ele>
        <time>2016-05-25T13:43:57Z</time>
      </trkpt>
      <trkpt lat="44.79307" lon="-0.36719">
        <ele>61.18</ele>
        <time>2016-05-25T13:44:01Z</time>
      </trkpt>
      <trkpt lat="44.79308" lon="-0.36714">
        <ele>61.18</ele>
        <time>2016-05-25T13:44:04Z</time>
      </trkpt>
      <trkpt lat="44.79318" lon="-0.36685">
        <ele>62.14</ele>
        <time>2016-05-25T13:44:25Z</time>
      </trkpt>
      <trkpt lat="44.79331" lon="-0.36674">
        <ele>62.62</ele>
        <time>2016-05-25T13:44:35Z</time>
      </trkpt>
      <trkpt lat="44.7936" lon="-0.36649">
        <ele>63.58</ele>
        <time>2016-05-25T13:44:57Z</time>
      </trkpt>
      <trkpt lat="44.79363" lon="-0.36646">
        <ele>65.51</ele>
        <time>2016-05-25T13:44:59Z</time>
      </trkpt>
      <trkpt lat="44.79384" lon="-0.36638">
        <ele>66.95</ele>
        <time>2016-05-25T13:45:19Z</time>
      </trkpt>
      <trkpt lat="44.79412" lon="-0.36638">
        <ele>68.39</ele>
        <time>2016-05-25T13:45:38Z</time>
      </trkpt>
      <trkpt lat="44.7943" lon="-0.3662">
        <ele>69.83</ele>
        <time>2016-05-25T13:46:01Z</time>
      </trkpt>
      <trkpt lat="44.79432" lon="-0.36618">
        <ele>70.79</ele>
        <time>2016-05-25T13:46:03Z</time>
      </trkpt>
      <trkpt lat="44.79428" lon="-0.36593">
        <ele>72.72</ele>
        <time>2016-05-25T13:46:23Z</time>
      </trkpt>
      <trkpt lat="44.79413" lon="-0.36585">
        <ele>74.16</ele>
        <time>2016-05-25T13:46:40Z</time>
      </trkpt>
      <trkpt lat="44.79388" lon="-0.3658">
        <ele>75.12</ele>
        <time>2016-05-25T13:47:03Z</time>
      </trkpt>
      <trkpt lat="44.79383" lon="-0.36579">
        <ele>76.56</ele>
        <time>2016-05-25T13:47:07Z</time>
      </trkpt>
      <trkpt lat="44.79362" lon="-0.36556">
        <ele>78</ele>
        <time>2016-05-25T13:47:26Z</time>
      </trkpt>
      <trkpt lat="44.7936" lon="-0.36554">
        <ele>78</ele>
        <time>2016-05-25T13:47:28Z</time>
      </trkpt>
      <trkpt lat="44.79349" lon="-0.36527">
        <ele>79.93</ele>
        <time>2016-05-25T13:47:50Z</time>
      </trkpt>
      <trkpt lat="44.79344" lon="-0.36513">
        <ele>80.41</ele>
        <time>2016-05-25T13:47:56Z</time>
      </trkpt>
      <trkpt lat="44.79323" lon="-0.36492">
        <ele>82.33</ele>
        <time>2016-05-25T13:48:14Z</time>
      </trkpt>
      <trkpt lat="44.79311" lon="-0.36474">
        <ele>83.29</ele>
        <time>2016-05-25T13:48:31Z</time>
      </trkpt>
      <trkpt lat="44.79302" lon="-0.36451">
        <ele>85.21</ele>
        <time>2016-05-25T13:48:49Z</time>
      </trkpt>
      <trkpt lat="44.79306" lon="-0.36418">
        <ele>87.14</ele>
        <time>2016-05-25T13:49:06Z</time>
      </trkpt>
      <trkpt lat="44.79318" lon="-0.36397">
        <ele>87.62</ele>
        <time>2016-05-25T13:49:18Z</time>
      </trkpt>
      <trkpt lat="44.7934" lon="-0.36391">
        <ele>89.06</ele>
        <time>2016-05-25T13:49:35Z</time>
      </trkpt>
      <trkpt lat="44.79343" lon="-0.36389">
        <ele>87.62</ele>
        <time>2016-05-25T13:49:39Z</time>
      </trkpt>
      <trkpt lat="44.79346" lon="-0.36388">
        <ele>89.06</ele>
        <time>2016-05-25T13:49:41Z</time>
      </trkpt>
      <trkpt lat="44.79375" lon="-0.36382">
        <ele>90.98</ele>
        <time>2016-05-25T13:50:03Z</time>
      </trkpt>
      <trkpt lat="44.7939" lon="-0.36367">
        <ele>91.46</ele>
        <time>2016-05-25T13:50:17Z</time>
      </trkpt>
      <trkpt lat="44.7939" lon="-0.36346">
        <ele>93.39</ele>
        <time>2016-05-25T13:50:30Z</time>
      </trkpt>
      <trkpt lat="44.79389" lon="-0.36309">
        <ele>94.35</ele>
        <time>2016-05-25T13:50:50Z</time>
      </trkpt>
      <trkpt lat="44.79389" lon="-0.36291">
        <ele>94.83</ele>
        <time>2016-05-25T13:50:59Z</time>
      </trkpt>
      <trkpt lat="44.79388" lon="-0.36265">
        <ele>92.9</ele>
        <time>2016-05-25T13:51:13Z</time>
      </trkpt>
      <trkpt lat="44.79386" lon="-0.36258">
        <ele>95.31</ele>
        <time>2016-05-25T13:51:17Z</time>
      </trkpt>
      <trkpt lat="44.79385" lon="-0.36252">
        <ele>93.87</ele>
        <time>2016-05-25T13:51:20Z</time>
      </trkpt>
      <trkpt lat="44.79385" lon="-0.36247">
        <ele>95.31</ele>
        <time>2016-05-25T13:51:22Z</time>
      </trkpt>
      <trkpt lat="44.79383" lon="-0.36232">
        <ele>93.39</ele>
        <time>2016-05-25T13:51:30Z</time>
      </trkpt>
      <trkpt lat="44.79383" lon="-0.36215">
        <ele>93.39</ele>
        <time>2016-05-25T13:51:39Z</time>
      </trkpt>
      <trkpt lat="44.79385" lon="-0.36203">
        <ele>94.35</ele>
        <time>2016-05-25T13:51:47Z</time>
      </trkpt>
      <trkpt lat="44.79383" lon="-0.36175">
        <ele>94.35</ele>
        <time>2016-05-25T13:52:04Z</time>
      </trkpt>
      <trkpt lat="44.79381" lon="-0.36155">
        <ele>93.39</ele>
        <time>2016-05-25T13:52:15Z</time>
      </trkpt>
      <trkpt lat="44.79381" lon="-0.36127">
        <ele>93.87</ele>
        <time>2016-05-25T13:52:31Z</time>
      </trkpt>
      <trkpt lat="44.79378" lon="-0.36091">
        <ele>93.39</ele>
        <time>2016-05-25T13:52:50Z</time>
      </trkpt>
      <trkpt lat="44.79378" lon="-0.36087">
        <ele>94.83</ele>
        <time>2016-05-25T13:52:52Z</time>
      </trkpt>
      <trkpt lat="44.7938" lon="-0.36072">
        <ele>93.39</ele>
        <time>2016-05-25T13:53:07Z</time>
      </trkpt>
      <trkpt lat="44.79377" lon="-0.36069">
        <ele>93.39</ele>
        <time>2016-05-25T13:53:35Z</time>
      </trkpt>
      <trkpt lat="44.79385" lon="-0.3607">
        <ele>93.39</ele>
        <time>2016-05-25T13:54:01Z</time>
      </trkpt>
      <trkpt lat="44.79382" lon="-0.36069">
        <ele>93.39</ele>
        <time>2016-05-25T13:54:15Z</time>
      </trkpt>
      <trkpt lat="44.7938" lon="-0.36061">
        <ele>93.39</ele>
        <time>2016-05-25T13:54:28Z</time>
      </trkpt>
      <trkpt lat="44.7938" lon="-0.36044">
        <ele>92.9</ele>
        <time>2016-05-25T13:54:39Z</time>
      </trkpt>
      <trkpt lat="44.79386" lon="-0.36022">
        <ele>92.42</ele>
        <time>2016-05-25T13:54:56Z</time>
      </trkpt>
      <trkpt lat="44.79414" lon="-0.36032">
        <ele>92.42</ele>
        <time>2016-05-25T13:55:17Z</time>
      </trkpt>
      <trkpt lat="44.7943" lon="-0.36035">
        <ele>91.46</ele>
        <time>2016-05-25T13:55:30Z</time>
      </trkpt>
      <trkpt lat="44.79445" lon="-0.36038">
        <ele>91.46</ele>
        <time>2016-05-25T13:55:42Z</time>
      </trkpt>
      <trkpt lat="44.79468" lon="-0.36043">
        <ele>90.98</ele>
        <time>2016-05-25T13:56:03Z</time>
      </trkpt>
      <trkpt lat="44.79493" lon="-0.36044">
        <ele>90.98</ele>
        <time>2016-05-25T13:56:22Z</time>
      </trkpt>
      <trkpt lat="44.79508" lon="-0.36046">
        <ele>89.54</ele>
        <time>2016-05-25T13:56:32Z</time>
      </trkpt>
      <trkpt lat="44.79531" lon="-0.3604">
        <ele>90.02</ele>
        <time>2016-05-25T13:56:52Z</time>
      </trkpt>
      <trkpt lat="44.79541" lon="-0.3604">
        <ele>90.5</ele>
        <time>2016-05-25T13:57:00Z</time>
      </trkpt>
      <trkpt lat="44.79551" lon="-0.36044">
        <ele>89.06</ele>
        <time>2016-05-25T13:57:09Z</time>
      </trkpt>
      <trkpt lat="44.79569" lon="-0.36039">
        <ele>89.06</ele>
        <time>2016-05-25T13:57:25Z</time>
      </trkpt>
      <trkpt lat="44.79582" lon="-0.36036">
        <ele>90.02</ele>
        <time>2016-05-25T13:57:37Z</time>
      </trkpt>
      <trkpt lat="44.79611" lon="-0.36022">
        <ele>89.06</ele>
        <time>2016-05-25T13:58:02Z</time>
      </trkpt>
      <trkpt lat="44.79628" lon="-0.36025">
        <ele>90.02</ele>
        <time>2016-05-25T13:58:15Z</time>
      </trkpt>
      <trkpt lat="44.79637" lon="-0.36018">
        <ele>88.58</ele>
        <time>2016-05-25T13:58:23Z</time>
      </trkpt>
      <trkpt lat="44.79663" lon="-0.36002">
        <ele>88.1</ele>
        <time>2016-05-25T13:58:43Z</time>
      </trkpt>
      <trkpt lat="44.79668" lon="-0.35999">
        <ele>89.54</ele>
        <time>2016-05-25T13:58:46Z</time>
      </trkpt>
      <trkpt lat="44.79688" lon="-0.35995">
        <ele>89.54</ele>
        <time>2016-05-25T13:59:01Z</time>
      </trkpt>
      <trkpt lat="44.79696" lon="-0.35993">
        <ele>89.06</ele>
        <time>2016-05-25T13:59:06Z</time>
      </trkpt>
      <trkpt lat="44.79712" lon="-0.35988">
        <ele>89.06</ele>
        <time>2016-05-25T13:59:20Z</time>
      </trkpt>
      <trkpt lat="44.79726" lon="-0.35983">
        <ele>87.62</ele>
        <time>2016-05-25T13:59:33Z</time>
      </trkpt>
      <trkpt lat="44.79744" lon="-0.35979">
        <ele>87.62</ele>
        <time>2016-05-25T13:59:47Z</time>
      </trkpt>
      <trkpt lat="44.79768" lon="-0.35975">
        <ele>88.58</ele>
        <time>2016-05-25T14:00:04Z</time>
      </trkpt>
      <trkpt lat="44.79785" lon="-0.35972">
        <ele>88.1</ele>
        <time>2016-05-25T14:00:15Z</time>
      </trkpt>
      <trkpt lat="44.79795" lon="-0.35967">
        <ele>87.62</ele>
        <time>2016-05-25T14:00:27Z</time>
      </trkpt>
      <trkpt lat="44.79802" lon="-0.35963">
        <ele>89.06</ele>
        <time>2016-05-25T14:00:35Z</time>
      </trkpt>
      <trkpt lat="44.79813" lon="-0.35953">
        <ele>89.06</ele>
        <time>2016-05-25T14:00:50Z</time>
      </trkpt>
      <trkpt lat="44.79819" lon="-0.3595">
        <ele>89.06</ele>
        <time>2016-05-25T14:00:56Z</time>
      </trkpt>
      <trkpt lat="44.79821" lon="-0.3595">
        <ele>87.62</ele>
        <time>2016-05-25T14:00:58Z</time>
      </trkpt>
      <trkpt lat="44.79823" lon="-0.3595">
        <ele>87.62</ele>
        <time>2016-05-25T14:00:59Z</time>
      </trkpt>
      <trkpt lat="44.79848" lon="-0.35946">
        <ele>87.62</ele>
        <time>2016-05-25T14:01:17Z</time>
      </trkpt>
      <trkpt lat="44.79861" lon="-0.35943">
        <ele>89.06</ele>
        <time>2016-05-25T14:01:26Z</time>
      </trkpt>
      <trkpt lat="44.79871" lon="-0.35942">
        <ele>88.1</ele>
        <time>2016-05-25T14:01:32Z</time>
      </trkpt>
      <trkpt lat="44.79884" lon="-0.35938">
        <ele>89.06</ele>
        <time>2016-05-25T14:01:46Z</time>
      </trkpt>
      <trkpt lat="44.79905" lon="-0.35929">
        <ele>87.62</ele>
        <time>2016-05-25T14:02:02Z</time>
      </trkpt>
      <trkpt lat="44.79926" lon="-0.35924">
        <ele>88.58</ele>
        <time>2016-05-25T14:02:20Z</time>
      </trkpt>
      <trkpt lat="44.79941" lon="-0.35912">
        <ele>88.58</ele>
        <time>2016-05-25T14:02:37Z</time>
      </trkpt>
      <trkpt lat="44.79942" lon="-0.35907">
        <ele>87.62</ele>
        <time>2016-05-25T14:02:42Z</time>
      </trkpt>
      <trkpt lat="44.79939" lon="-0.35895">
        <ele>89.06</ele>
        <time>2016-05-25T14:02:50Z</time>
      </trkpt>
      <trkpt lat="44.79938" lon="-0.35893">
        <ele>89.06</ele>
        <time>2016-05-25T14:02:51Z</time>
      </trkpt>
      <trkpt lat="44.79925" lon="-0.35866">
        <ele>88.58</ele>
        <time>2016-05-25T14:03:11Z</time>
      </trkpt>
      <trkpt lat="44.79922" lon="-0.35857">
        <ele>90.02</ele>
        <time>2016-05-25T14:03:19Z</time>
      </trkpt>
      <trkpt lat="44.79917" lon="-0.35848">
        <ele>88.58</ele>
        <time>2016-05-25T14:03:26Z</time>
      </trkpt>
      <trkpt lat="44.79915" lon="-0.35842">
        <ele>90.02</ele>
        <time>2016-05-25T14:03:30Z</time>
      </trkpt>
      <trkpt lat="44.79912" lon="-0.35834">
        <ele>90.5</ele>
        <time>2016-05-25T14:03:35Z</time>
      </trkpt>
      <trkpt lat="44.79908" lon="-0.35803">
        <ele>90.5</ele>
        <time>2016-05-25T14:03:47Z</time>
      </trkpt>
      <trkpt lat="44.79911" lon="-0.35798">
        <ele>89.06</ele>
        <time>2016-05-25T14:03:51Z</time>
      </trkpt>
      <trkpt lat="44.79913" lon="-0.35796">
        <ele>90.5</ele>
        <time>2016-05-25T14:03:53Z</time>
      </trkpt>
      <trkpt lat="44.79934" lon="-0.35783">
        <ele>90.5</ele>
        <time>2016-05-25T14:04:12Z</time>
      </trkpt>
      <trkpt lat="44.79936" lon="-0.35781">
        <ele>89.06</ele>
        <time>2016-05-25T14:04:14Z</time>
      </trkpt>
      <trkpt lat="44.79937" lon="-0.35779">
        <ele>90.5</ele>
        <time>2016-05-25T14:04:16Z</time>
      </trkpt>
      <trkpt lat="44.79963" lon="-0.35761">
        <ele>89.06</ele>
        <time>2016-05-25T14:04:37Z</time>
      </trkpt>
      <trkpt lat="44.79964" lon="-0.3576">
        <ele>89.06</ele>
        <time>2016-05-25T14:04:38Z</time>
      </trkpt>
      <trkpt lat="44.79984" lon="-0.35735">
        <ele>88.1</ele>
        <time>2016-05-25T14:04:59Z</time>
      </trkpt>
      <trkpt lat="44.80001" lon="-0.35712">
        <ele>88.58</ele>
        <time>2016-05-25T14:05:18Z</time>
      </trkpt>
      <trkpt lat="44.80025" lon="-0.3569">
        <ele>85.69</ele>
        <time>2016-05-25T14:05:40Z</time>
      </trkpt>
      <trkpt lat="44.80044" lon="-0.35668">
        <ele>85.21</ele>
        <time>2016-05-25T14:06:00Z</time>
      </trkpt>
      <trkpt lat="44.80061" lon="-0.35647">
        <ele>84.25</ele>
        <time>2016-05-25T14:06:22Z</time>
      </trkpt>
      <trkpt lat="44.80074" lon="-0.35632">
        <ele>85.21</ele>
        <time>2016-05-25T14:06:35Z</time>
      </trkpt>
      <trkpt lat="44.80091" lon="-0.35616">
        <ele>83.29</ele>
        <time>2016-05-25T14:06:48Z</time>
      </trkpt>
      <trkpt lat="44.80103" lon="-0.356">
        <ele>82.81</ele>
        <time>2016-05-25T14:07:02Z</time>
      </trkpt>
      <trkpt lat="44.80128" lon="-0.35578">
        <ele>83.77</ele>
        <time>2016-05-25T14:07:27Z</time>
      </trkpt>
      <trkpt lat="44.80154" lon="-0.3556">
        <ele>84.25</ele>
        <time>2016-05-25T14:07:48Z</time>
      </trkpt>
      <trkpt lat="44.80177" lon="-0.35529">
        <ele>84.73</ele>
        <time>2016-05-25T14:08:11Z</time>
      </trkpt>
      <trkpt lat="44.80186" lon="-0.35503">
        <ele>83.29</ele>
        <time>2016-05-25T14:08:30Z</time>
      </trkpt>
      <trkpt lat="44.80204" lon="-0.35486">
        <ele>82.81</ele>
        <time>2016-05-25T14:08:52Z</time>
      </trkpt>
      <trkpt lat="44.80209" lon="-0.35475">
        <ele>83.77</ele>
        <time>2016-05-25T14:09:08Z</time>
      </trkpt>
      <trkpt lat="44.8022" lon="-0.35455">
        <ele>82.33</ele>
        <time>2016-05-25T14:09:21Z</time>
      </trkpt>
      <trkpt lat="44.80225" lon="-0.35449">
        <ele>83.77</ele>
        <time>2016-05-25T14:09:26Z</time>
      </trkpt>
      <trkpt lat="44.80235" lon="-0.35427">
        <ele>81.85</ele>
        <time>2016-05-25T14:09:42Z</time>
      </trkpt>
      <trkpt lat="44.80249" lon="-0.35405">
        <ele>81.37</ele>
        <time>2016-05-25T14:10:03Z</time>
      </trkpt>
      <trkpt lat="44.80269" lon="-0.3539">
        <ele>79.45</ele>
        <time>2016-05-25T14:10:20Z</time>
      </trkpt>
      <trkpt lat="44.8028" lon="-0.35384">
        <ele>77.52</ele>
        <time>2016-05-25T14:10:28Z</time>
      </trkpt>
      <trkpt lat="44.80281" lon="-0.35382">
        <ele>78.97</ele>
        <time>2016-05-25T14:10:30Z</time>
      </trkpt>
      <trkpt lat="44.80279" lon="-0.35372">
        <ele>77.52</ele>
        <time>2016-05-25T14:10:39Z</time>
      </trkpt>
      <trkpt lat="44.80279" lon="-0.35338">
        <ele>74.64</ele>
        <time>2016-05-25T14:10:59Z</time>
      </trkpt>
      <trkpt lat="44.8028" lon="-0.35316">
        <ele>71.76</ele>
        <time>2016-05-25T14:11:12Z</time>
      </trkpt>
      <trkpt lat="44.80284" lon="-0.3529">
        <ele>68.87</ele>
        <time>2016-05-25T14:11:33Z</time>
      </trkpt>
      <trkpt lat="44.80278" lon="-0.35256">
        <ele>65.51</ele>
        <time>2016-05-25T14:11:53Z</time>
      </trkpt>
      <trkpt lat="44.80291" lon="-0.3522">
        <ele>63.1</ele>
        <time>2016-05-25T14:12:15Z</time>
      </trkpt>
      <trkpt lat="44.8029" lon="-0.35207">
        <ele>63.1</ele>
        <time>2016-05-25T14:12:25Z</time>
      </trkpt>
      <trkpt lat="44.80289" lon="-0.35202">
        <ele>61.66</ele>
        <time>2016-05-25T14:12:28Z</time>
      </trkpt>
      <trkpt lat="44.80298" lon="-0.35183">
        <ele>60.7</ele>
        <time>2016-05-25T14:12:44Z</time>
      </trkpt>
      <trkpt lat="44.80301" lon="-0.35168">
        <ele>59.74</ele>
        <time>2016-05-25T14:13:04Z</time>
      </trkpt>
      <trkpt lat="44.80304" lon="-0.35166">
        <ele>60.22</ele>
        <time>2016-05-25T14:13:08Z</time>
      </trkpt>
      <trkpt lat="44.80307" lon="-0.35163">
        <ele>58.78</ele>
        <time>2016-05-25T14:13:12Z</time>
      </trkpt>
      <trkpt lat="44.80324" lon="-0.35125">
        <ele>56.86</ele>
        <time>2016-05-25T14:13:33Z</time>
      </trkpt>
      <trkpt lat="44.80328" lon="-0.35117">
        <ele>56.37</ele>
        <time>2016-05-25T14:13:38Z</time>
      </trkpt>
      <trkpt lat="44.80338" lon="-0.35088">
        <ele>54.93</ele>
        <time>2016-05-25T14:13:57Z</time>
      </trkpt>
      <trkpt lat="44.80344" lon="-0.35069">
        <ele>53.49</ele>
        <time>2016-05-25T14:14:10Z</time>
      </trkpt>
      <trkpt lat="44.80349" lon="-0.35039">
        <ele>52.53</ele>
        <time>2016-05-25T14:14:28Z</time>
      </trkpt>
      <trkpt lat="44.80355" lon="-0.35024">
        <ele>51.57</ele>
        <time>2016-05-25T14:14:45Z</time>
      </trkpt>
      <trkpt lat="44.80374" lon="-0.35011">
        <ele>48.68</ele>
        <time>2016-05-25T14:15:06Z</time>
      </trkpt>
      <trkpt lat="44.80379" lon="-0.35006">
        <ele>44.36</ele>
        <time>2016-05-25T14:15:15Z</time>
      </trkpt>
      <trkpt lat="44.8038" lon="-0.35005">
        <ele>49.16</ele>
        <time>2016-05-25T14:15:16Z</time>
      </trkpt>
      <trkpt lat="44.80382" lon="-0.35001">
        <ele>47.24</ele>
        <time>2016-05-25T14:15:22Z</time>
      </trkpt>
      <trkpt lat="44.804" lon="-0.34971">
        <ele>44.84</ele>
        <time>2016-05-25T14:15:46Z</time>
      </trkpt>
      <trkpt lat="44.80408" lon="-0.34938">
        <ele>44.36</ele>
        <time>2016-05-25T14:16:07Z</time>
      </trkpt>
      <trkpt lat="44.80414" lon="-0.34928">
        <ele>43.88</ele>
        <time>2016-05-25T14:16:17Z</time>
      </trkpt>
      <trkpt lat="44.80415" lon="-0.34926">
        <ele>44.84</ele>
        <time>2016-05-25T14:16:19Z</time>
      </trkpt>
      <trkpt lat="44.80418" lon="-0.34893">
        <ele>43.4</ele>
        <time>2016-05-25T14:16:38Z</time>
      </trkpt>
      <trkpt lat="44.80425" lon="-0.34852">
        <ele>42.44</ele>
        <time>2016-05-25T14:17:00Z</time>
      </trkpt>
      <trkpt lat="44.80431" lon="-0.34815">
        <ele>40.99</ele>
        <time>2016-05-25T14:17:21Z</time>
      </trkpt>
      <trkpt lat="44.80442" lon="-0.34801">
        <ele>40.99</ele>
        <time>2016-05-25T14:17:43Z</time>
      </trkpt>
      <trkpt lat="44.80482" lon="-0.34774">
        <ele>40.03</ele>
        <time>2016-05-25T14:18:03Z</time>
      </trkpt>
      <trkpt lat="44.80491" lon="-0.34757">
        <ele>39.55</ele>
        <time>2016-05-25T14:18:18Z</time>
      </trkpt>
      <trkpt lat="44.80493" lon="-0.34749">
        <ele>39.07</ele>
        <time>2016-05-25T14:18:34Z</time>
      </trkpt>
      <trkpt lat="44.80486" lon="-0.34736">
        <ele>39.07</ele>
        <time>2016-05-25T14:18:47Z</time>
      </trkpt>
      <trkpt lat="44.80473" lon="-0.34712">
        <ele>40.03</ele>
        <time>2016-05-25T14:19:04Z</time>
      </trkpt>
      <trkpt lat="44.80469" lon="-0.34697">
        <ele>40.03</ele>
        <time>2016-05-25T14:19:13Z</time>
      </trkpt>
      <trkpt lat="44.80466" lon="-0.34687">
        <ele>38.59</ele>
        <time>2016-05-25T14:19:18Z</time>
      </trkpt>
      <trkpt lat="44.80453" lon="-0.3466">
        <ele>38.59</ele>
        <time>2016-05-25T14:19:37Z</time>
      </trkpt>
      <trkpt lat="44.8045" lon="-0.34646">
        <ele>39.07</ele>
        <time>2016-05-25T14:19:45Z</time>
      </trkpt>
      <trkpt lat="44.80436" lon="-0.3462">
        <ele>39.55</ele>
        <time>2016-05-25T14:20:05Z</time>
      </trkpt>
      <trkpt lat="44.80435" lon="-0.34618">
        <ele>38.11</ele>
        <time>2016-05-25T14:20:07Z</time>
      </trkpt>
      <trkpt lat="44.80434" lon="-0.34616">
        <ele>39.55</ele>
        <time>2016-05-25T14:20:09Z</time>
      </trkpt>
      <trkpt lat="44.80428" lon="-0.34581">
        <ele>37.63</ele>
        <time>2016-05-25T14:20:30Z</time>
      </trkpt>
      <trkpt lat="44.80445" lon="-0.34559">
        <ele>37.63</ele>
        <time>2016-05-25T14:20:50Z</time>
      </trkpt>
      <trkpt lat="44.8047" lon="-0.34537">
        <ele>36.67</ele>
        <time>2016-05-25T14:21:12Z</time>
      </trkpt>
      <trkpt lat="44.80476" lon="-0.34533">
        <ele>36.67</ele>
        <time>2016-05-25T14:21:19Z</time>
      </trkpt>
      <trkpt lat="44.80477" lon="-0.34532">
        <ele>37.63</ele>
        <time>2016-05-25T14:21:21Z</time>
      </trkpt>
      <trkpt lat="44.80503" lon="-0.34519">
        <ele>34.26</ele>
        <time>2016-05-25T14:21:41Z</time>
      </trkpt>
      <trkpt lat="44.80504" lon="-0.34518">
        <ele>42.44</ele>
        <time>2016-05-25T14:21:42Z</time>
      </trkpt>
      <trkpt lat="44.80505" lon="-0.34518">
        <ele>37.63</ele>
        <time>2016-05-25T14:21:43Z</time>
      </trkpt>
      <trkpt lat="44.80519" lon="-0.34487">
        <ele>37.15</ele>
        <time>2016-05-25T14:22:03Z</time>
      </trkpt>
      <trkpt lat="44.8052" lon="-0.34485">
        <ele>36.67</ele>
        <time>2016-05-25T14:22:04Z</time>
      </trkpt>
      <trkpt lat="44.80525" lon="-0.34475">
        <ele>38.11</ele>
        <time>2016-05-25T14:22:09Z</time>
      </trkpt>
      <trkpt lat="44.80538" lon="-0.34455">
        <ele>37.63</ele>
        <time>2016-05-25T14:22:27Z</time>
      </trkpt>
      <trkpt lat="44.80553" lon="-0.34431">
        <ele>37.15</ele>
        <time>2016-05-25T14:22:46Z</time>
      </trkpt>
      <trkpt lat="44.80558" lon="-0.34423">
        <ele>38.11</ele>
        <time>2016-05-25T14:22:54Z</time>
      </trkpt>
      <trkpt lat="44.80563" lon="-0.34415">
        <ele>39.07</ele>
        <time>2016-05-25T14:23:02Z</time>
      </trkpt>
      <trkpt lat="44.80574" lon="-0.3441">
        <ele>39.55</ele>
        <time>2016-05-25T14:23:10Z</time>
      </trkpt>
      <trkpt lat="44.80576" lon="-0.34407">
        <ele>40.99</ele>
        <time>2016-05-25T14:23:12Z</time>
      </trkpt>
      <trkpt lat="44.80579" lon="-0.34404">
        <ele>39.07</ele>
        <time>2016-05-25T14:23:15Z</time>
      </trkpt>
      <trkpt lat="44.8058" lon="-0.34401">
        <ele>40.51</ele>
        <time>2016-05-25T14:23:17Z</time>
      </trkpt>
      <trkpt lat="44.80589" lon="-0.34378">
        <ele>44.84</ele>
        <time>2016-05-25T14:23:34Z</time>
      </trkpt>
      <trkpt lat="44.80593" lon="-0.34368">
        <ele>44.36</ele>
        <time>2016-05-25T14:23:41Z</time>
      </trkpt>
      <trkpt lat="44.80602" lon="-0.34346">
        <ele>47.72</ele>
        <time>2016-05-25T14:24:00Z</time>
      </trkpt>
      <trkpt lat="44.80606" lon="-0.34334">
        <ele>49.65</ele>
        <time>2016-05-25T14:24:08Z</time>
      </trkpt>
      <trkpt lat="44.80604" lon="-0.34331">
        <ele>48.2</ele>
        <time>2016-05-25T14:24:10Z</time>
      </trkpt>
      <trkpt lat="44.80605" lon="-0.34327">
        <ele>50.61</ele>
        <time>2016-05-25T14:24:15Z</time>
      </trkpt>
      <trkpt lat="44.80626" lon="-0.34322">
        <ele>50.13</ele>
        <time>2016-05-25T14:24:37Z</time>
      </trkpt>
      <trkpt lat="44.80626" lon="-0.3433">
        <ele>51.57</ele>
        <time>2016-05-25T14:24:57Z</time>
      </trkpt>
      <trkpt lat="44.80624" lon="-0.34338">
        <ele>51.09</ele>
        <time>2016-05-25T14:25:15Z</time>
      </trkpt>
      <trkpt lat="44.80618" lon="-0.3434">
        <ele>51.09</ele>
        <time>2016-05-25T14:25:44Z</time>
      </trkpt>
      <trkpt lat="44.80614" lon="-0.34329">
        <ele>50.61</ele>
        <time>2016-05-25T14:26:09Z</time>
      </trkpt>
      <trkpt lat="44.80611" lon="-0.34324">
        <ele>51.09</ele>
        <time>2016-05-25T14:26:35Z</time>
      </trkpt>
      <trkpt lat="44.80613" lon="-0.3432">
        <ele>52.53</ele>
        <time>2016-05-25T14:26:39Z</time>
      </trkpt>
      <trkpt lat="44.8062" lon="-0.34315">
        <ele>53.01</ele>
        <time>2016-05-25T14:26:46Z</time>
      </trkpt>
      <trkpt lat="44.80634" lon="-0.34306">
        <ele>53.49</ele>
        <time>2016-05-25T14:26:59Z</time>
      </trkpt>
      <trkpt lat="44.80636" lon="-0.34305">
        <ele>54.93</ele>
        <time>2016-05-25T14:27:01Z</time>
      </trkpt>
      <trkpt lat="44.8064" lon="-0.34292">
        <ele>55.89</ele>
        <time>2016-05-25T14:27:09Z</time>
      </trkpt>
      <trkpt lat="44.80645" lon="-0.34268">
        <ele>56.37</ele>
        <time>2016-05-25T14:27:24Z</time>
      </trkpt>
      <trkpt lat="44.80646" lon="-0.34266">
        <ele>58.3</ele>
        <time>2016-05-25T14:27:26Z</time>
      </trkpt>
      <trkpt lat="44.80651" lon="-0.34247">
        <ele>59.74</ele>
        <time>2016-05-25T14:27:39Z</time>
      </trkpt>
      <trkpt lat="44.80652" lon="-0.34244">
        <ele>58.3</ele>
        <time>2016-05-25T14:27:41Z</time>
      </trkpt>
      <trkpt lat="44.80655" lon="-0.34233">
        <ele>58.78</ele>
        <time>2016-05-25T14:27:50Z</time>
      </trkpt>
      <trkpt lat="44.80661" lon="-0.34227">
        <ele>60.7</ele>
        <time>2016-05-25T14:27:56Z</time>
      </trkpt>
      <trkpt lat="44.80674" lon="-0.34212">
        <ele>60.22</ele>
        <time>2016-05-25T14:28:08Z</time>
      </trkpt>
      <trkpt lat="44.80676" lon="-0.3421">
        <ele>62.14</ele>
        <time>2016-05-25T14:28:10Z</time>
      </trkpt>
      <trkpt lat="44.80684" lon="-0.34198">
        <ele>62.62</ele>
        <time>2016-05-25T14:28:20Z</time>
      </trkpt>
      <trkpt lat="44.80695" lon="-0.34168">
        <ele>65.03</ele>
        <time>2016-05-25T14:28:40Z</time>
      </trkpt>
      <trkpt lat="44.80702" lon="-0.34143">
        <ele>65.99</ele>
        <time>2016-05-25T14:28:57Z</time>
      </trkpt>
      <trkpt lat="44.80703" lon="-0.34142">
        <ele>66.95</ele>
        <time>2016-05-25T14:28:58Z</time>
      </trkpt>
      <trkpt lat="44.80707" lon="-0.3412">
        <ele>67.43</ele>
        <time>2016-05-25T14:29:20Z</time>
      </trkpt>
      <trkpt lat="44.80707" lon="-0.34118">
        <ele>67.43</ele>
        <time>2016-05-25T14:29:27Z</time>
      </trkpt>
      <trkpt lat="44.80716" lon="-0.34098">
        <ele>68.39</ele>
        <time>2016-05-25T14:29:42Z</time>
      </trkpt>
      <trkpt lat="44.80733" lon="-0.34077">
        <ele>69.83</ele>
        <time>2016-05-25T14:30:02Z</time>
      </trkpt>
      <trkpt lat="44.80746" lon="-0.34059">
        <ele>71.76</ele>
        <time>2016-05-25T14:30:20Z</time>
      </trkpt>
      <trkpt lat="44.80749" lon="-0.34039">
        <ele>73.68</ele>
        <time>2016-05-25T14:30:34Z</time>
      </trkpt>
      <trkpt lat="44.80756" lon="-0.34025">
        <ele>73.2</ele>
        <time>2016-05-25T14:30:47Z</time>
      </trkpt>
      <trkpt lat="44.80762" lon="-0.34012">
        <ele>76.56</ele>
        <time>2016-05-25T14:31:00Z</time>
      </trkpt>
      <trkpt lat="44.80782" lon="-0.33978">
        <ele>78</ele>
        <time>2016-05-25T14:31:25Z</time>
      </trkpt>
      <trkpt lat="44.80795" lon="-0.33949">
        <ele>78.97</ele>
        <time>2016-05-25T14:31:44Z</time>
      </trkpt>
      <trkpt lat="44.80811" lon="-0.33932">
        <ele>80.89</ele>
        <time>2016-05-25T14:32:02Z</time>
      </trkpt>
      <trkpt lat="44.80822" lon="-0.33907">
        <ele>84.25</ele>
        <time>2016-05-25T14:32:17Z</time>
      </trkpt>
      <trkpt lat="44.80834" lon="-0.33896">
        <ele>84.73</ele>
        <time>2016-05-25T14:32:28Z</time>
      </trkpt>
      <trkpt lat="44.80836" lon="-0.33896">
        <ele>83.29</ele>
        <time>2016-05-25T14:32:31Z</time>
      </trkpt>
      <trkpt lat="44.80838" lon="-0.33897">
        <ele>85.21</ele>
        <time>2016-05-25T14:32:33Z</time>
      </trkpt>
      <trkpt lat="44.80841" lon="-0.33899">
        <ele>83.77</ele>
        <time>2016-05-25T14:32:41Z</time>
      </trkpt>
      <trkpt lat="44.80842" lon="-0.339">
        <ele>85.21</ele>
        <time>2016-05-25T14:32:43Z</time>
      </trkpt>
      <trkpt lat="44.80858" lon="-0.33903">
        <ele>84.25</ele>
        <time>2016-05-25T14:32:53Z</time>
      </trkpt>
      <trkpt lat="44.80863" lon="-0.33907">
        <ele>86.18</ele>
        <time>2016-05-25T14:32:58Z</time>
      </trkpt>
      <trkpt lat="44.80869" lon="-0.33909">
        <ele>84.25</ele>
        <time>2016-05-25T14:33:02Z</time>
      </trkpt>
      <trkpt lat="44.80886" lon="-0.33916">
        <ele>85.69</ele>
        <time>2016-05-25T14:33:13Z</time>
      </trkpt>
      <trkpt lat="44.809" lon="-0.33922">
        <ele>87.14</ele>
        <time>2016-05-25T14:33:30Z</time>
      </trkpt>
      <trkpt lat="44.80904" lon="-0.33925">
        <ele>85.21</ele>
        <time>2016-05-25T14:33:33Z</time>
      </trkpt>
      <trkpt lat="44.80926" lon="-0.33932">
        <ele>86.66</ele>
        <time>2016-05-25T14:33:53Z</time>
      </trkpt>
      <trkpt lat="44.80934" lon="-0.33931">
        <ele>86.66</ele>
        <time>2016-05-25T14:33:58Z</time>
      </trkpt>
      <trkpt lat="44.80954" lon="-0.33925">
        <ele>86.66</ele>
        <time>2016-05-25T14:34:12Z</time>
      </trkpt>
      <trkpt lat="44.80978" lon="-0.33928">
        <ele>86.66</ele>
        <time>2016-05-25T14:34:33Z</time>
      </trkpt>
      <trkpt lat="44.81006" lon="-0.33929">
        <ele>87.14</ele>
        <time>2016-05-25T14:34:55Z</time>
      </trkpt>
      <trkpt lat="44.81032" lon="-0.33937">
        <ele>87.14</ele>
        <time>2016-05-25T14:35:16Z</time>
      </trkpt>
      <trkpt lat="44.81049" lon="-0.33944">
        <ele>85.69</ele>
        <time>2016-05-25T14:35:32Z</time>
      </trkpt>
      <trkpt lat="44.81052" lon="-0.33945">
        <ele>87.14</ele>
        <time>2016-05-25T14:35:34Z</time>
      </trkpt>
      <trkpt lat="44.81073" lon="-0.33958">
        <ele>87.14</ele>
        <time>2016-05-25T14:35:52Z</time>
      </trkpt>
      <trkpt lat="44.81094" lon="-0.33969">
        <ele>87.14</ele>
        <time>2016-05-25T14:36:09Z</time>
      </trkpt>
      <trkpt lat="44.81102" lon="-0.3397">
        <ele>88.58</ele>
        <time>2016-05-25T14:36:15Z</time>
      </trkpt>
      <trkpt lat="44.81118" lon="-0.33981">
        <ele>88.58</ele>
        <time>2016-05-25T14:36:34Z</time>
      </trkpt>
      <trkpt lat="44.81128" lon="-0.3399">
        <ele>88.58</ele>
        <time>2016-05-25T14:36:52Z</time>
      </trkpt>
      <trkpt lat="44.81139" lon="-0.34002">
        <ele>88.1</ele>
        <time>2016-05-25T14:37:05Z</time>
      </trkpt>
      <trkpt lat="44.81156" lon="-0.34019">
        <ele>88.1</ele>
        <time>2016-05-25T14:37:22Z</time>
      </trkpt>
      <trkpt lat="44.8116" lon="-0.34024">
        <ele>86.66</ele>
        <time>2016-05-25T14:37:26Z</time>
      </trkpt>
      <trkpt lat="44.81184" lon="-0.34042">
        <ele>86.18</ele>
        <time>2016-05-25T14:37:45Z</time>
      </trkpt>
      <trkpt lat="44.812" lon="-0.34062">
        <ele>85.69</ele>
        <time>2016-05-25T14:38:02Z</time>
      </trkpt>
      <trkpt lat="44.8121" lon="-0.34078">
        <ele>86.18</ele>
        <time>2016-05-25T14:38:15Z</time>
      </trkpt>
      <trkpt lat="44.81223" lon="-0.3409">
        <ele>84.73</ele>
        <time>2016-05-25T14:38:29Z</time>
      </trkpt>
      <trkpt lat="44.81233" lon="-0.34108">
        <ele>86.18</ele>
        <time>2016-05-25T14:38:44Z</time>
      </trkpt>
      <trkpt lat="44.81249" lon="-0.34129">
        <ele>84.73</ele>
        <time>2016-05-25T14:39:00Z</time>
      </trkpt>
      <trkpt lat="44.81263" lon="-0.3415">
        <ele>84.25</ele>
        <time>2016-05-25T14:39:18Z</time>
      </trkpt>
      <trkpt lat="44.81265" lon="-0.34152">
        <ele>84.73</ele>
        <time>2016-05-25T14:39:19Z</time>
      </trkpt>
      <trkpt lat="44.81282" lon="-0.34164">
        <ele>84.25</ele>
        <time>2016-05-25T14:39:38Z</time>
      </trkpt>
      <trkpt lat="44.8129" lon="-0.34169">
        <ele>83.29</ele>
        <time>2016-05-25T14:39:46Z</time>
      </trkpt>
      <trkpt lat="44.81292" lon="-0.34171">
        <ele>82.33</ele>
        <time>2016-05-25T14:39:49Z</time>
      </trkpt>
      <trkpt lat="44.81294" lon="-0.34172">
        <ele>81.85</ele>
        <time>2016-05-25T14:39:51Z</time>
      </trkpt>
      <trkpt lat="44.81324" lon="-0.34172">
        <ele>79.93</ele>
        <time>2016-05-25T14:40:12Z</time>
      </trkpt>
      <trkpt lat="44.81337" lon="-0.34174">
        <ele>77.04</ele>
        <time>2016-05-25T14:40:31Z</time>
      </trkpt>
      <trkpt lat="44.81366" lon="-0.34172">
        <ele>74.64</ele>
        <time>2016-05-25T14:40:49Z</time>
      </trkpt>
      <trkpt lat="44.81388" lon="-0.34174">
        <ele>72.72</ele>
        <time>2016-05-25T14:41:09Z</time>
      </trkpt>
      <trkpt lat="44.81416" lon="-0.34173">
        <ele>70.79</ele>
        <time>2016-05-25T14:41:27Z</time>
      </trkpt>
      <trkpt lat="44.8143" lon="-0.34168">
        <ele>69.83</ele>
        <time>2016-05-25T14:41:39Z</time>
      </trkpt>
      <trkpt lat="44.81452" lon="-0.34165">
        <ele>68.87</ele>
        <time>2016-05-25T14:41:57Z</time>
      </trkpt>
      <trkpt lat="44.8147" lon="-0.34171">
        <ele>69.35</ele>
        <time>2016-05-25T14:42:13Z</time>
      </trkpt>
      <trkpt lat="44.81473" lon="-0.34172">
        <ele>68.39</ele>
        <time>2016-05-25T14:42:16Z</time>
      </trkpt>
      <trkpt lat="44.81485" lon="-0.34177">
        <ele>68.87</ele>
        <time>2016-05-25T14:42:25Z</time>
      </trkpt>
      <trkpt lat="44.81503" lon="-0.34186">
        <ele>66.95</ele>
        <time>2016-05-25T14:42:41Z</time>
      </trkpt>
      <trkpt lat="44.81522" lon="-0.34197">
        <ele>67.91</ele>
        <time>2016-05-25T14:42:57Z</time>
      </trkpt>
      <trkpt lat="44.81527" lon="-0.34203">
        <ele>66.95</ele>
        <time>2016-05-25T14:43:03Z</time>
      </trkpt>
      <trkpt lat="44.81544" lon="-0.3422">
        <ele>65.99</ele>
        <time>2016-05-25T14:43:21Z</time>
      </trkpt>
      <trkpt lat="44.81559" lon="-0.34234">
        <ele>65.03</ele>
        <time>2016-05-25T14:43:35Z</time>
      </trkpt>
      <trkpt lat="44.81569" lon="-0.3424">
        <ele>65.03</ele>
        <time>2016-05-25T14:43:43Z</time>
      </trkpt>
      <trkpt lat="44.81585" lon="-0.34255">
        <ele>64.07</ele>
        <time>2016-05-25T14:43:59Z</time>
      </trkpt>
      <trkpt lat="44.81601" lon="-0.34279">
        <ele>62.62</ele>
        <time>2016-05-25T14:44:17Z</time>
      </trkpt>
      <trkpt lat="44.81608" lon="-0.34303">
        <ele>63.1</ele>
        <time>2016-05-25T14:44:33Z</time>
      </trkpt>
      <trkpt lat="44.81622" lon="-0.34332">
        <ele>61.18</ele>
        <time>2016-05-25T14:44:53Z</time>
      </trkpt>
      <trkpt lat="44.81644" lon="-0.34347">
        <ele>61.18</ele>
        <time>2016-05-25T14:45:16Z</time>
      </trkpt>
      <trkpt lat="44.81651" lon="-0.34348">
        <ele>59.74</ele>
        <time>2016-05-25T14:45:22Z</time>
      </trkpt>
      <trkpt lat="44.81674" lon="-0.3435">
        <ele>58.78</ele>
        <time>2016-05-25T14:45:46Z</time>
      </trkpt>
      <trkpt lat="44.81702" lon="-0.34338">
        <ele>58.3</ele>
        <time>2016-05-25T14:46:09Z</time>
      </trkpt>
      <trkpt lat="44.81725" lon="-0.34331">
        <ele>58.3</ele>
        <time>2016-05-25T14:46:28Z</time>
      </trkpt>
      <trkpt lat="44.81746" lon="-0.34328">
        <ele>57.34</ele>
        <time>2016-05-25T14:46:45Z</time>
      </trkpt>
      <trkpt lat="44.81768" lon="-0.34319">
        <ele>55.41</ele>
        <time>2016-05-25T14:47:04Z</time>
      </trkpt>
      <trkpt lat="44.81782" lon="-0.34309">
        <ele>53.97</ele>
        <time>2016-05-25T14:47:16Z</time>
      </trkpt>
      <trkpt lat="44.81808" lon="-0.34302">
        <ele>52.53</ele>
        <time>2016-05-25T14:47:38Z</time>
      </trkpt>
      <trkpt lat="44.81833" lon="-0.34305">
        <ele>50.13</ele>
        <time>2016-05-25T14:48:00Z</time>
      </trkpt>
      <trkpt lat="44.81834" lon="-0.34307">
        <ele>50.13</ele>
        <time>2016-05-25T14:48:01Z</time>
      </trkpt>
      <trkpt lat="44.81848" lon="-0.34327">
        <ele>49.16</ele>
        <time>2016-05-25T14:48:17Z</time>
      </trkpt>
      <trkpt lat="44.81866" lon="-0.34348">
        <ele>48.2</ele>
        <time>2016-05-25T14:48:35Z</time>
      </trkpt>
      <trkpt lat="44.81883" lon="-0.3437">
        <ele>47.72</ele>
        <time>2016-05-25T14:48:54Z</time>
      </trkpt>
      <trkpt lat="44.81901" lon="-0.34389">
        <ele>47.72</ele>
        <time>2016-05-25T14:49:12Z</time>
      </trkpt>
      <trkpt lat="44.81913" lon="-0.34403">
        <ele>46.76</ele>
        <time>2016-05-25T14:49:27Z</time>
      </trkpt>
      <trkpt lat="44.81933" lon="-0.34429">
        <ele>46.76</ele>
        <time>2016-05-25T14:49:47Z</time>
      </trkpt>
      <trkpt lat="44.81935" lon="-0.34432">
        <ele>45.32</ele>
        <time>2016-05-25T14:49:50Z</time>
      </trkpt>
      <trkpt lat="44.81936" lon="-0.34435">
        <ele>46.28</ele>
        <time>2016-05-25T14:49:52Z</time>
      </trkpt>
      <trkpt lat="44.81937" lon="-0.34437">
        <ele>45.32</ele>
        <time>2016-05-25T14:49:53Z</time>
      </trkpt>
      <trkpt lat="44.8194" lon="-0.34446">
        <ele>46.28</ele>
        <time>2016-05-25T14:49:59Z</time>
      </trkpt>
      <trkpt lat="44.81943" lon="-0.34459">
        <ele>46.28</ele>
        <time>2016-05-25T14:50:07Z</time>
      </trkpt>
      <trkpt lat="44.81942" lon="-0.34487">
        <ele>45.32</ele>
        <time>2016-05-25T14:50:20Z</time>
      </trkpt>
      <trkpt lat="44.81946" lon="-0.34495">
        <ele>46.28</ele>
        <time>2016-05-25T14:50:29Z</time>
      </trkpt>
      <trkpt lat="44.81949" lon="-0.34502">
        <ele>46.76</ele>
        <time>2016-05-25T14:50:44Z</time>
      </trkpt>
      <trkpt lat="44.81947" lon="-0.34505">
        <ele>46.76</ele>
        <time>2016-05-25T14:50:56Z</time>
      </trkpt>
    </trkseg>
  </trk>
</gpx>